Darstellungsparameter: Aktuell verwendete Einstellungen:
Skalierung der Graphiken ... ?
xyx+y,   Skalierungsfaktor:      Skalierung: Modus: x, Faktor: 1
Darstellungszeitraum ... ?
Vom - - bis: - -   Zeitraum: 10.12.2021 - 14.12.2021
Min/Max/Avg-Anzeige ... ?
Zeige MMA aktuell
Zeige MMA Monat
Zeige MMA alles
Zeige --A aktuell
Zeige --A Monat
Zeige --A alles
Keine MMA-Anzeige
MMA:
Average (ber die Originaldaten)
MMA-Basis: 10.12.2021 - 14.12.2021
Quicknavigation für Darstellung... ?
Tage:      1T, 2T, 3T, 5T -1T -2T -3T -5T +1T +2T +3T +5T
Wochen: 1W, 2W, 3W -1W -2W -3W +1W +2W +3W
Monate: 1M, 3M, 6M -1M -3M -6M +1M +3M +6M
Jahre:    1J, 3J, 5J, 10J -1J -3J -5J -10J +1J +3J +5J +10J
Nutze für die Darstellung ... ?
Originaldaten oder Mittelwerte auf ...
Stundenbasis Tagesbasis Wochenbasis
Monatsbasis Jahresbasis      Datenbasis: Original-Daten
Darstellen als:
Statistik (Auto) Statistik J:M      Darstellung:
Zur Graphik,    zurück zur Übersicht aller Sensoren.
 
Tabellarische Datenbersicht: ?
 
Sensor: Nr:Datum:Temp:Abs-Feuchte:Windchill:Wind:
Aussen-T/F 1 10-12-2021 00:00:00 4.3 C 5.9 g/m*3 4.3 C 1.6 km/h
2 10-12-2021 00:05:00 4.3 C 5.9 g/m*3 4.3 C 4.8 km/h
3 10-12-2021 00:10:00 4.4 C 5.94 g/m*3 4.4 C 0 km/h
4 10-12-2021 00:15:00 4.4 C 5.94 g/m*3 4.4 C 3.2 km/h
5 10-12-2021 00:20:00 4.4 C 5.94 g/m*3 4.4 C 4.8 km/h
6 10-12-2021 00:25:00 4.4 C 5.94 g/m*3 4.4 C 0 km/h
7 10-12-2021 00:30:00 4.4 C 5.94 g/m*3 4.4 C 1.6 km/h
8 10-12-2021 00:35:00 4.4 C 5.94 g/m*3 4.4 C 0 km/h
9 10-12-2021 00:40:00 4.4 C 5.94 g/m*3 4.4 C 0 km/h
10 10-12-2021 00:45:00 4.4 C 5.94 g/m*3 4.4 C 0 km/h
11 10-12-2021 00:50:00 4.3 C 5.9 g/m*3 4.3 C 0 km/h
12 10-12-2021 00:55:00 4.3 C 5.9 g/m*3 4.3 C 0 km/h
13 10-12-2021 01:00:00 4.3 C 5.9 g/m*3 2.78 C 6.4 km/h
14 10-12-2021 01:05:00 4.3 C 5.9 g/m*3 4.3 C 1.6 km/h
15 10-12-2021 01:10:00 4.3 C 5.9 g/m*3 4.3 C 1.6 km/h
16 10-12-2021 01:15:00 4.3 C 5.9 g/m*3 1.24 C 12.9 km/h
17 10-12-2021 01:20:00 4.3 C 5.84 g/m*3 1.89 C 9.7 km/h
18 10-12-2021 01:25:00 4.4 C 5.88 g/m*3 2.9 C 6.4 km/h
19 10-12-2021 01:30:00 4.4 C 5.81 g/m*3 2.4 C 8.1 km/h
20 10-12-2021 01:35:00 4.5 C 5.85 g/m*3 3.02 C 6.4 km/h
21 10-12-2021 01:40:00 4.6 C 5.82 g/m*3 4.6 C 3.2 km/h
22 10-12-2021 01:45:00 4.6 C 5.82 g/m*3 3.13 C 6.4 km/h
23 10-12-2021 01:50:00 4.6 C 5.76 g/m*3 1.91 C 11.3 km/h
24 10-12-2021 01:55:00 4.6 C 5.69 g/m*3 2.64 C 8.1 km/h
25 10-12-2021 02:00:00 4.6 C 5.69 g/m*3 4.6 C 4.8 km/h
Sensor: Nr:Datum:Temp:Abs-Feuchte:Windchill:Wind:
Aussen-T/F 26 10-12-2021 02:05:00 4.6 C 5.69 g/m*3 3.13 C 6.4 km/h
27 10-12-2021 02:10:00 4.7 C 5.73 g/m*3 3.25 C 6.4 km/h
28 10-12-2021 02:15:00 4.7 C 5.66 g/m*3 2.37 C 9.7 km/h
29 10-12-2021 02:20:00 4.6 C 5.62 g/m*3 2.64 C 8.1 km/h
30 10-12-2021 02:25:00 4.6 C 5.62 g/m*3 4.6 C 4.8 km/h
31 10-12-2021 02:30:00 4.6 C 5.62 g/m*3 4.6 C 4.8 km/h
32 10-12-2021 02:35:00 4.6 C 5.62 g/m*3 3.13 C 6.4 km/h
33 10-12-2021 02:40:00 4.4 C 5.55 g/m*3 4.4 C 3.2 km/h
34 10-12-2021 02:45:00 4.3 C 5.51 g/m*3 4.3 C 3.2 km/h
35 10-12-2021 02:50:00 4.3 C 5.51 g/m*3 4.3 C 4.8 km/h
36 10-12-2021 02:55:00 4.2 C 5.48 g/m*3 4.2 C 1.6 km/h
37 10-12-2021 03:00:00 4.1 C 5.44 g/m*3 4.1 C 1.6 km/h
38 10-12-2021 03:05:00 3.9 C 5.37 g/m*3 3.9 C 0 km/h
39 10-12-2021 03:10:00 3.8 C 5.33 g/m*3 3.8 C 3.2 km/h
40 10-12-2021 03:15:00 3.5 C 5.29 g/m*3 3.5 C 0 km/h
41 10-12-2021 03:20:00 3.2 C 5.18 g/m*3 3.2 C 3.2 km/h
42 10-12-2021 03:25:00 2.9 C 5.08 g/m*3 2.9 C 0 km/h
43 10-12-2021 03:30:00 2.7 C 5.07 g/m*3 2.7 C 0 km/h
44 10-12-2021 03:35:00 2.5 C 5.12 g/m*3 2.5 C 1.6 km/h
45 10-12-2021 03:40:00 2.4 C 5.14 g/m*3 2.4 C 0 km/h
46 10-12-2021 03:45:00 2.4 C 5.14 g/m*3 2.4 C 0 km/h
47 10-12-2021 03:50:00 2.4 C 5.14 g/m*3 2.4 C 0 km/h
48 10-12-2021 03:55:00 2.3 C 5.1 g/m*3 2.3 C 0 km/h
49 10-12-2021 04:00:00 2.2 C 5.07 g/m*3 2.2 C 0 km/h
50 10-12-2021 04:05:00 2.1 C 5.09 g/m*3 2.1 C 0 km/h
Sensor: Nr:Datum:Temp:Abs-Feuchte:Windchill:Wind:
Aussen-T/F 51 10-12-2021 04:10:00 2 C 5.06 g/m*3 2 C 0 km/h
52 10-12-2021 04:15:00 1.9 C 5.02 g/m*3 1.9 C 0 km/h
53 10-12-2021 04:20:00 1.8 C 4.99 g/m*3 1.8 C 0 km/h
54 10-12-2021 04:25:00 1.7 C 4.95 g/m*3 1.7 C 0 km/h
55 10-12-2021 04:30:00 1.5 C 4.89 g/m*3 1.5 C 0 km/h
56 10-12-2021 04:35:00 1.4 C 4.85 g/m*3 1.4 C 0 km/h
57 10-12-2021 04:40:00 1.3 C 4.87 g/m*3 1.3 C 0 km/h
58 10-12-2021 04:45:00 1.2 C 4.84 g/m*3 1.2 C 0 km/h
59 10-12-2021 04:50:00 1.2 C 4.84 g/m*3 1.2 C 0 km/h
60 10-12-2021 04:55:00 1.1 C 4.81 g/m*3 1.1 C 0 km/h
61 10-12-2021 05:00:00 1 C 4.78 g/m*3 1 C 0 km/h
62 10-12-2021 05:05:00 0.9 C 4.79 g/m*3 0.9 C 0 km/h
63 10-12-2021 05:10:00 0.9 C 4.79 g/m*3 0.9 C 0 km/h
64 10-12-2021 05:15:00 0.9 C 4.79 g/m*3 0.9 C 0 km/h
65 10-12-2021 05:20:00 0.9 C 4.79 g/m*3 0.9 C 0 km/h
66 10-12-2021 05:25:00 0.9 C 4.85 g/m*3 0.9 C 0 km/h
67 10-12-2021 05:30:00 0.9 C 4.85 g/m*3 0.9 C 0 km/h
68 10-12-2021 05:35:00 1 C 4.88 g/m*3 1 C 0 km/h
69 10-12-2021 05:40:00 1.1 C 4.91 g/m*3 1.1 C 0 km/h
70 10-12-2021 05:45:00 1.1 C 4.91 g/m*3 1.1 C 0 km/h
71 10-12-2021 05:50:00 1.1 C 4.91 g/m*3 1.1 C 0 km/h
72 10-12-2021 05:55:00 1.2 C 4.95 g/m*3 1.2 C 0 km/h
73 10-12-2021 06:00:00 1.2 C 4.95 g/m*3 1.2 C 0 km/h
74 10-12-2021 06:05:00 1.2 C 4.95 g/m*3 1.2 C 0 km/h
75 10-12-2021 06:10:00 1.2 C 4.95 g/m*3 1.2 C 0 km/h
Sensor: Nr:Datum:Temp:Abs-Feuchte:Windchill:Wind:
Aussen-T/F 76 10-12-2021 06:15:00 1.2 C 4.95 g/m*3 1.2 C 0 km/h
77 10-12-2021 06:20:00 1.2 C 4.95 g/m*3 1.2 C 0 km/h
78 10-12-2021 06:25:00 1.1 C 4.91 g/m*3 1.1 C 0 km/h
79 10-12-2021 06:30:00 1.1 C 4.91 g/m*3 1.1 C 0 km/h
80 10-12-2021 06:35:00 0.9 C 4.85 g/m*3 0.9 C 0 km/h
81 10-12-2021 06:40:00 0.8 C 4.81 g/m*3 0.8 C 0 km/h
82 10-12-2021 06:45:00 0.8 C 4.81 g/m*3 0.8 C 0 km/h
83 10-12-2021 06:50:00 0.7 C 4.78 g/m*3 0.7 C 0 km/h
84 10-12-2021 06:55:00 0.6 C 4.75 g/m*3 0.6 C 0 km/h
85 10-12-2021 07:00:00 0.6 C 4.75 g/m*3 0.6 C 0 km/h
86 10-12-2021 07:05:00 0.6 C 4.75 g/m*3 0.6 C 0 km/h
87 10-12-2021 07:10:00 0.4 C 4.68 g/m*3 0.4 C 0 km/h
88 10-12-2021 07:15:00 0.4 C 4.68 g/m*3 0.4 C 3.2 km/h
89 10-12-2021 07:20:00 0.4 C 4.73 g/m*3 0.4 C 1.6 km/h
90 10-12-2021 07:25:00 0.4 C 4.73 g/m*3 0.4 C 1.6 km/h
91 10-12-2021 07:30:00 0.6 C 4.8 g/m*3 0.6 C 1.6 km/h
92 10-12-2021 07:35:00 0.6 C 4.8 g/m*3 0.6 C 3.2 km/h
93 10-12-2021 07:40:00 0.7 C 4.83 g/m*3 0.7 C 3.2 km/h
94 10-12-2021 07:45:00 0.7 C 4.83 g/m*3 0.7 C 0 km/h
95 10-12-2021 07:50:00 0.6 C 4.8 g/m*3 0.6 C 3.2 km/h
96 10-12-2021 07:55:00 0.6 C 4.8 g/m*3 0.6 C 1.6 km/h
97 10-12-2021 08:00:00 0.7 C 4.83 g/m*3 -1.37 C 6.4 km/h
98 10-12-2021 08:05:00 0.8 C 4.86 g/m*3 0.8 C 3.2 km/h
99 10-12-2021 08:10:00 1.1 C 5.02 g/m*3 -1.48 C 8.1 km/h
100 10-12-2021 08:15:00 1.3 C 5.09 g/m*3 -0.68 C 6.4 km/h
Sensor: Nr:Datum:Temp:Abs-Feuchte:Windchill:Wind:
Aussen-T/F 101 10-12-2021 08:20:00 1.4 C 5.07 g/m*3 -0.56 C 6.4 km/h
102 10-12-2021 08:25:00 1.6 C 5.14 g/m*3 -1.71 C 11.3 km/h
103 10-12-2021 08:30:00 1.7 C 5.17 g/m*3 -1.59 C 11.3 km/h
104 10-12-2021 08:35:00 1.8 C 5.15 g/m*3 1.8 C 4.8 km/h
105 10-12-2021 08:40:00 1.8 C 5.1 g/m*3 -0.1 C 6.4 km/h
106 10-12-2021 08:45:00 1.9 C 5.13 g/m*3 0.01 C 6.4 km/h
107 10-12-2021 08:50:00 1.9 C 5.13 g/m*3 -1.35 C 11.3 km/h
108 10-12-2021 08:55:00 2.1 C 5.15 g/m*3 -0.73 C 9.7 km/h
109 10-12-2021 09:00:00 2.1 C 5.15 g/m*3 -0.3 C 8.1 km/h
110 10-12-2021 09:05:00 2.1 C 5.15 g/m*3 2.1 C 3.2 km/h
111 10-12-2021 09:10:00 2.2 C 5.13 g/m*3 0.36 C 6.4 km/h
112 10-12-2021 09:15:00 2.2 C 5.13 g/m*3 2.2 C 1.6 km/h
113 10-12-2021 09:20:00 2.3 C 5.16 g/m*3 -0.07 C 8.1 km/h
114 10-12-2021 09:25:00 2.3 C 5.16 g/m*3 2.3 C 4.8 km/h
115 10-12-2021 09:30:00 2.4 C 5.14 g/m*3 2.4 C 1.6 km/h
116 10-12-2021 09:35:00 2.5 C 5.17 g/m*3 0.17 C 8.1 km/h
117 10-12-2021 09:40:00 2.6 C 5.15 g/m*3 -0.5 C 11.3 km/h
118 10-12-2021 09:45:00 2.7 C 5.19 g/m*3 0.94 C 6.4 km/h
119 10-12-2021 09:50:00 2.7 C 5.19 g/m*3 -0.02 C 9.7 km/h
120 10-12-2021 09:55:00 2.7 C 5.13 g/m*3 0.4 C 8.1 km/h
121 10-12-2021 10:00:00 2.8 C 5.16 g/m*3 0.1 C 9.7 km/h
122 10-12-2021 10:05:00 2.8 C 5.16 g/m*3 0.52 C 8.1 km/h
123 10-12-2021 10:10:00 2.8 C 5.16 g/m*3 0.52 C 8.1 km/h
124 10-12-2021 10:15:00 2.9 C 5.14 g/m*3 0.22 C 9.7 km/h
125 10-12-2021 10:20:00 2.9 C 5.2 g/m*3 1.17 C 6.4 km/h
Sensor: Nr:Datum:Temp:Abs-Feuchte:Windchill:Wind:
Aussen-T/F 126 10-12-2021 10:25:00 3 C 5.17 g/m*3 0.34 C 9.7 km/h
127 10-12-2021 10:30:00 3.1 C 5.21 g/m*3 0.87 C 8.1 km/h
128 10-12-2021 10:35:00 3.1 C 5.21 g/m*3 1.4 C 6.4 km/h
129 10-12-2021 10:40:00 3.2 C 5.18 g/m*3 0.99 C 8.1 km/h
130 10-12-2021 10:45:00 3.2 C 5.18 g/m*3 0.99 C 8.1 km/h
131 10-12-2021 10:50:00 3.2 C 5.12 g/m*3 -0.39 C 14.5 km/h
132 10-12-2021 10:55:00 3.3 C 5.16 g/m*3 0.7 C 9.7 km/h
133 10-12-2021 11:00:00 3.3 C 5.16 g/m*3 1.11 C 8.1 km/h
134 10-12-2021 11:05:00 3.4 C 5.19 g/m*3 1.75 C 6.4 km/h
135 10-12-2021 11:10:00 3.4 C 5.13 g/m*3 1.75 C 6.4 km/h
136 10-12-2021 11:15:00 3.5 C 5.16 g/m*3 1.86 C 6.4 km/h
137 10-12-2021 11:20:00 3.6 C 5.14 g/m*3 1.46 C 8.1 km/h
138 10-12-2021 11:25:00 3.6 C 5.2 g/m*3 1.98 C 6.4 km/h
139 10-12-2021 11:30:00 3.7 C 5.17 g/m*3 3.7 C 4.8 km/h
140 10-12-2021 11:35:00 3.8 C 5.21 g/m*3 2.21 C 6.4 km/h
141 10-12-2021 11:40:00 3.8 C 5.21 g/m*3 2.21 C 6.4 km/h
142 10-12-2021 11:45:00 3.8 C 5.14 g/m*3 1.29 C 9.7 km/h
143 10-12-2021 11:50:00 3.9 C 5.24 g/m*3 2.32 C 6.4 km/h
144 10-12-2021 11:55:00 4 C 5.28 g/m*3 4 C 4.8 km/h
145 10-12-2021 12:00:00 4 C 5.21 g/m*3 2.44 C 6.4 km/h
146 10-12-2021 12:05:00 4 C 5.15 g/m*3 2.44 C 6.4 km/h
147 10-12-2021 12:10:00 4 C 5.21 g/m*3 1.93 C 8.1 km/h
148 10-12-2021 12:15:00 4 C 5.21 g/m*3 1.93 C 8.1 km/h
149 10-12-2021 12:20:00 4.1 C 5.25 g/m*3 2.05 C 8.1 km/h
150 10-12-2021 12:25:00 4.1 C 5.12 g/m*3 1.31 C 11.3 km/h
Sensor: Nr:Datum:Temp:Abs-Feuchte:Windchill:Wind:
Aussen-T/F 151 10-12-2021 12:30:00 4.1 C 5.18 g/m*3 2.55 C 6.4 km/h
152 10-12-2021 12:35:00 4.1 C 5.18 g/m*3 2.05 C 8.1 km/h
153 10-12-2021 12:40:00 4.1 C 5.18 g/m*3 2.05 C 8.1 km/h
154 10-12-2021 12:45:00 4.1 C 5.18 g/m*3 2.55 C 6.4 km/h
155 10-12-2021 12:50:00 4.2 C 5.22 g/m*3 2.17 C 8.1 km/h
156 10-12-2021 12:55:00 4.2 C 5.15 g/m*3 0.84 C 14.5 km/h
157 10-12-2021 13:00:00 4.2 C 5.15 g/m*3 2.17 C 8.1 km/h
158 10-12-2021 13:05:00 4.2 C 5.15 g/m*3 2.17 C 8.1 km/h
159 10-12-2021 13:10:00 4.3 C 5.25 g/m*3 1.89 C 9.7 km/h
160 10-12-2021 13:15:00 4.3 C 5.19 g/m*3 4.3 C 4.8 km/h
161 10-12-2021 13:20:00 4.3 C 5.25 g/m*3 4.3 C 3.2 km/h
162 10-12-2021 13:25:00 4.3 C 5.19 g/m*3 1.55 C 11.3 km/h
163 10-12-2021 13:30:00 4.3 C 5.25 g/m*3 4.3 C 4.8 km/h
164 10-12-2021 13:35:00 4.2 C 5.22 g/m*3 2.17 C 8.1 km/h
165 10-12-2021 13:40:00 4.2 C 5.22 g/m*3 4.2 C 4.8 km/h
166 10-12-2021 13:45:00 4.2 C 5.22 g/m*3 2.67 C 6.4 km/h
167 10-12-2021 13:50:00 4.1 C 5.18 g/m*3 2.55 C 6.4 km/h
168 10-12-2021 13:55:00 4.1 C 5.25 g/m*3 4.1 C 3.2 km/h
169 10-12-2021 14:00:00 4 C 5.21 g/m*3 4 C 4.8 km/h
170 10-12-2021 14:05:00 3.9 C 5.18 g/m*3 1.82 C 8.1 km/h
171 10-12-2021 14:10:00 3.9 C 5.18 g/m*3 2.32 C 6.4 km/h
172 10-12-2021 14:15:00 3.9 C 5.24 g/m*3 2.32 C 6.4 km/h
173 10-12-2021 14:20:00 3.8 C 5.21 g/m*3 2.21 C 6.4 km/h
174 10-12-2021 14:25:00 3.8 C 5.21 g/m*3 1.7 C 8.1 km/h
175 10-12-2021 14:30:00 3.8 C 5.21 g/m*3 3.8 C 3.2 km/h
Sensor: Nr:Datum:Temp:Abs-Feuchte:Windchill:Wind:
Aussen-T/F 176 10-12-2021 14:35:00 3.8 C 5.21 g/m*3 1.7 C 8.1 km/h
177 10-12-2021 14:40:00 3.8 C 5.27 g/m*3 2.21 C 6.4 km/h
178 10-12-2021 14:45:00 3.7 C 5.23 g/m*3 3.7 C 4.8 km/h
179 10-12-2021 14:50:00 3.7 C 5.3 g/m*3 1.58 C 8.1 km/h
180 10-12-2021 14:55:00 3.6 C 5.32 g/m*3 3.6 C 3.2 km/h
181 10-12-2021 15:00:00 3.6 C 5.39 g/m*3 1.46 C 8.1 km/h
182 10-12-2021 15:05:00 3.5 C 5.35 g/m*3 3.5 C 3.2 km/h
183 10-12-2021 15:10:00 3.4 C 5.31 g/m*3 3.4 C 4.8 km/h
184 10-12-2021 15:15:00 3.4 C 5.37 g/m*3 1.75 C 6.4 km/h
185 10-12-2021 15:20:00 3.3 C 5.34 g/m*3 3.3 C 4.8 km/h
186 10-12-2021 15:25:00 3.3 C 5.4 g/m*3 3.3 C 4.8 km/h
187 10-12-2021 15:30:00 3.2 C 5.36 g/m*3 3.2 C 3.2 km/h
188 10-12-2021 15:35:00 3.2 C 5.36 g/m*3 3.2 C 3.2 km/h
189 10-12-2021 15:40:00 3.2 C 5.42 g/m*3 3.2 C 3.2 km/h
190 10-12-2021 15:45:00 3.1 C 5.39 g/m*3 3.1 C 0 km/h
191 10-12-2021 15:50:00 3.1 C 5.39 g/m*3 3.1 C 1.6 km/h
192 10-12-2021 15:55:00 3.1 C 5.39 g/m*3 3.1 C 1.6 km/h
193 10-12-2021 16:00:00 3 C 5.35 g/m*3 3 C 1.6 km/h
194 10-12-2021 16:05:00 2.9 C 5.32 g/m*3 2.9 C 1.6 km/h
195 10-12-2021 16:10:00 2.9 C 5.32 g/m*3 2.9 C 0 km/h
196 10-12-2021 16:15:00 2.9 C 5.32 g/m*3 2.9 C 0 km/h
197 10-12-2021 16:20:00 2.8 C 5.28 g/m*3 2.8 C 0 km/h
198 10-12-2021 16:25:00 2.8 C 5.28 g/m*3 2.8 C 0 km/h
199 10-12-2021 16:30:00 2.8 C 5.34 g/m*3 2.8 C 0 km/h
200 10-12-2021 16:35:00 2.7 C 5.3 g/m*3 2.7 C 0 km/h
Sensor: Nr:Datum:Temp:Abs-Feuchte:Windchill:Wind:
Aussen-T/F 201 10-12-2021 16:40:00 2.7 C 5.3 g/m*3 2.7 C 0 km/h
202 10-12-2021 16:45:00 2.6 C 5.27 g/m*3 2.6 C 0 km/h
203 10-12-2021 16:50:00 2.6 C 5.27 g/m*3 2.6 C 0 km/h
204 10-12-2021 16:55:00 2.5 C 5.23 g/m*3 2.5 C 0 km/h
205 10-12-2021 17:00:00 2.4 C 5.2 g/m*3 2.4 C 0 km/h
206 10-12-2021 17:05:00 2.4 C 5.2 g/m*3 2.4 C 0 km/h
207 10-12-2021 17:10:00 2.3 C 5.22 g/m*3 2.3 C 0 km/h
208 10-12-2021 17:15:00 2.2 C 5.13 g/m*3 2.2 C 0 km/h
209 10-12-2021 17:20:00 2.2 C 5.18 g/m*3 2.2 C 0 km/h
210 10-12-2021 17:25:00 2.2 C 5.18 g/m*3 2.2 C 0 km/h
211 10-12-2021 17:30:00 2.1 C 5.15 g/m*3 2.1 C 0 km/h
212 10-12-2021 17:35:00 2.1 C 5.15 g/m*3 2.1 C 0 km/h
213 10-12-2021 17:40:00 2.1 C 5.15 g/m*3 2.1 C 0 km/h
214 10-12-2021 17:45:00 2 C 5.11 g/m*3 2 C 0 km/h
215 10-12-2021 17:50:00 1.9 C 5.08 g/m*3 1.9 C 0 km/h
216 10-12-2021 17:55:00 1.9 C 5.08 g/m*3 1.9 C 0 km/h
217 10-12-2021 18:00:00 1.9 C 5.13 g/m*3 1.9 C 0 km/h
218 10-12-2021 18:05:00 1.9 C 5.08 g/m*3 1.9 C 0 km/h
219 10-12-2021 18:10:00 1.8 C 5.1 g/m*3 1.8 C 0 km/h
220 10-12-2021 18:15:00 1.8 C 5.1 g/m*3 1.8 C 0 km/h
221 10-12-2021 18:20:00 1.8 C 5.1 g/m*3 1.8 C 0 km/h
222 10-12-2021 18:25:00 1.8 C 5.1 g/m*3 1.8 C 0 km/h
223 10-12-2021 18:30:00 1.8 C 5.1 g/m*3 1.8 C 0 km/h
224 10-12-2021 18:35:00 1.8 C 5.1 g/m*3 1.8 C 0 km/h
225 10-12-2021 18:40:00 1.8 C 5.1 g/m*3 1.8 C 0 km/h
Sensor: Nr:Datum:Temp:Abs-Feuchte:Windchill:Wind:
Aussen-T/F 226 10-12-2021 18:45:00 1.8 C 5.1 g/m*3 1.8 C 0 km/h
227 10-12-2021 18:50:00 1.8 C 5.1 g/m*3 1.8 C 0 km/h
228 10-12-2021 18:55:00 1.8 C 5.1 g/m*3 1.8 C 0 km/h
229 10-12-2021 19:00:00 1.8 C 5.1 g/m*3 1.8 C 0 km/h
230 10-12-2021 19:05:00 1.8 C 5.1 g/m*3 1.8 C 0 km/h
231 10-12-2021 19:10:00 1.8 C 5.15 g/m*3 1.8 C 0 km/h
232 10-12-2021 19:15:00 1.8 C 5.15 g/m*3 1.8 C 0 km/h
233 10-12-2021 19:20:00 1.9 C 5.19 g/m*3 1.9 C 0 km/h
234 10-12-2021 19:25:00 1.9 C 5.19 g/m*3 1.9 C 0 km/h
235 10-12-2021 19:30:00 1.9 C 5.19 g/m*3 1.9 C 0 km/h
236 10-12-2021 19:35:00 1.9 C 5.19 g/m*3 1.9 C 0 km/h
237 10-12-2021 19:40:00 1.9 C 5.19 g/m*3 1.9 C 0 km/h
238 10-12-2021 19:45:00 1.9 C 5.19 g/m*3 1.9 C 0 km/h
239 10-12-2021 19:50:00 1.9 C 5.19 g/m*3 1.9 C 0 km/h
240 10-12-2021 19:55:00 1.9 C 5.19 g/m*3 1.9 C 0 km/h
241 10-12-2021 20:00:00 1.9 C 5.19 g/m*3 1.9 C 0 km/h
242 10-12-2021 20:05:00 1.9 C 5.19 g/m*3 1.9 C 0 km/h
243 10-12-2021 20:10:00 1.9 C 5.19 g/m*3 1.9 C 0 km/h
244 10-12-2021 20:15:00 1.9 C 5.19 g/m*3 1.9 C 0 km/h
245 10-12-2021 20:20:00 1.9 C 5.19 g/m*3 1.9 C 0 km/h
246 10-12-2021 20:25:00 1.9 C 5.19 g/m*3 1.9 C 0 km/h
247 10-12-2021 20:30:00 1.9 C 5.19 g/m*3 1.9 C 0 km/h
248 10-12-2021 20:35:00 1.9 C 5.19 g/m*3 1.9 C 0 km/h
249 10-12-2021 20:40:00 1.9 C 5.19 g/m*3 1.9 C 0 km/h
250 10-12-2021 20:45:00 1.9 C 5.19 g/m*3 1.9 C 0 km/h
Sensor: Nr:Datum:Temp:Abs-Feuchte:Windchill:Wind:
Aussen-T/F 251 10-12-2021 20:50:00 1.9 C 5.19 g/m*3 1.9 C 0 km/h
252 10-12-2021 20:55:00 1.9 C 5.19 g/m*3 1.9 C 0 km/h
253 10-12-2021 21:00:00 1.9 C 5.19 g/m*3 1.9 C 0 km/h
254 10-12-2021 21:05:00 1.9 C 5.19 g/m*3 1.9 C 0 km/h
255 10-12-2021 21:10:00 1.9 C 5.19 g/m*3 1.9 C 0 km/h
256 10-12-2021 21:15:00 1.9 C 5.19 g/m*3 1.9 C 0 km/h
257 10-12-2021 21:20:00 1.9 C 5.19 g/m*3 1.9 C 0 km/h
258 10-12-2021 21:25:00 1.9 C 5.19 g/m*3 1.9 C 0 km/h
259 10-12-2021 21:30:00 1.9 C 5.19 g/m*3 1.9 C 0 km/h
260 10-12-2021 21:35:00 1.9 C 5.19 g/m*3 1.9 C 0 km/h
261 10-12-2021 21:40:00 1.9 C 5.24 g/m*3 1.9 C 0 km/h
262 10-12-2021 21:45:00 1.9 C 5.24 g/m*3 1.9 C 0 km/h
263 10-12-2021 21:50:00 1.9 C 5.24 g/m*3 1.9 C 0 km/h
264 10-12-2021 21:55:00 2 C 5.28 g/m*3 2 C 0 km/h
265 10-12-2021 22:00:00 2 C 5.28 g/m*3 2 C 0 km/h
266 10-12-2021 22:05:00 2 C 5.28 g/m*3 2 C 0 km/h
267 10-12-2021 22:10:00 2 C 5.28 g/m*3 2 C 0 km/h
268 10-12-2021 22:15:00 2 C 5.28 g/m*3 2 C 0 km/h
269 10-12-2021 22:20:00 2 C 5.28 g/m*3 2 C 0 km/h
270 10-12-2021 22:25:00 2 C 5.28 g/m*3 2 C 0 km/h
271 10-12-2021 22:30:00 2.1 C 5.31 g/m*3 2.1 C 0 km/h
272 10-12-2021 22:35:00 2 C 5.28 g/m*3 2 C 0 km/h
273 10-12-2021 22:40:00 2.1 C 5.31 g/m*3 2.1 C 0 km/h
274 10-12-2021 22:45:00 2.1 C 5.31 g/m*3 2.1 C 0 km/h
275 10-12-2021 22:50:00 2.1 C 5.31 g/m*3 2.1 C 0 km/h
Sensor: Nr:Datum:Temp:Abs-Feuchte:Windchill:Wind:
Aussen-T/F 276 10-12-2021 22:55:00 2.1 C 5.31 g/m*3 2.1 C 0 km/h
277 10-12-2021 23:00:00 2.1 C 5.31 g/m*3 2.1 C 0 km/h
278 10-12-2021 23:05:00 2.1 C 5.31 g/m*3 2.1 C 0 km/h
279 10-12-2021 23:10:00 2.1 C 5.31 g/m*3 2.1 C 0 km/h
280 10-12-2021 23:15:00 2.2 C 5.35 g/m*3 2.2 C 0 km/h
281 10-12-2021 23:20:00 2.2 C 5.35 g/m*3 2.2 C 0 km/h
282 10-12-2021 23:25:00 2.2 C 5.35 g/m*3 2.2 C 0 km/h
283 10-12-2021 23:30:00 2.2 C 5.35 g/m*3 2.2 C 0 km/h
284 10-12-2021 23:35:00 2.2 C 5.35 g/m*3 2.2 C 0 km/h
285 10-12-2021 23:40:00 2.2 C 5.35 g/m*3 2.2 C 0 km/h
286 10-12-2021 23:45:00 2.2 C 5.35 g/m*3 2.2 C 1.6 km/h
287 10-12-2021 23:50:00 2.2 C 5.35 g/m*3 2.2 C 0 km/h
288 10-12-2021 23:55:00 2.2 C 5.35 g/m*3 2.2 C 0 km/h
289 11-12-2021 00:00:00 2.2 C 5.35 g/m*3 2.2 C 0 km/h
290 11-12-2021 00:05:00 2.3 C 5.39 g/m*3 2.3 C 3.2 km/h
291 11-12-2021 00:10:00 2.3 C 5.39 g/m*3 2.3 C 0 km/h
292 11-12-2021 00:15:00 2.3 C 5.39 g/m*3 2.3 C 0 km/h
293 11-12-2021 00:20:00 2.3 C 5.39 g/m*3 2.3 C 0 km/h
294 11-12-2021 00:25:00 2.3 C 5.39 g/m*3 2.3 C 1.6 km/h
295 11-12-2021 00:30:00 2.3 C 5.39 g/m*3 2.3 C 1.6 km/h
296 11-12-2021 00:35:00 2.3 C 5.39 g/m*3 2.3 C 0 km/h
297 11-12-2021 00:40:00 2.3 C 5.39 g/m*3 2.3 C 1.6 km/h
298 11-12-2021 00:45:00 2.3 C 5.39 g/m*3 2.3 C 0 km/h
299 11-12-2021 00:50:00 2.3 C 5.39 g/m*3 2.3 C 0 km/h
300 11-12-2021 00:55:00 2.3 C 5.39 g/m*3 2.3 C 0 km/h
Sensor: Nr:Datum:Temp:Abs-Feuchte:Windchill:Wind:
Aussen-T/F 301 11-12-2021 01:00:00 2.3 C 5.39 g/m*3 2.3 C 1.6 km/h
302 11-12-2021 01:05:00 2.3 C 5.39 g/m*3 2.3 C 0 km/h
303 11-12-2021 01:10:00 2.3 C 5.39 g/m*3 2.3 C 3.2 km/h
304 11-12-2021 01:15:00 2.4 C 5.42 g/m*3 2.4 C 0 km/h
305 11-12-2021 01:20:00 2.4 C 5.48 g/m*3 2.4 C 0 km/h
306 11-12-2021 01:25:00 2.4 C 5.48 g/m*3 2.4 C 1.6 km/h
307 11-12-2021 01:30:00 2.4 C 5.48 g/m*3 2.4 C 1.6 km/h
308 11-12-2021 01:35:00 2.4 C 5.48 g/m*3 2.4 C 0 km/h
309 11-12-2021 01:40:00 2.4 C 5.48 g/m*3 2.4 C 0 km/h
310 11-12-2021 01:45:00 2.4 C 5.48 g/m*3 2.4 C 0 km/h
311 11-12-2021 01:50:00 2.4 C 5.48 g/m*3 2.4 C 0 km/h
312 11-12-2021 01:55:00 2.4 C 5.48 g/m*3 2.4 C 0 km/h
313 11-12-2021 02:00:00 2.4 C 5.48 g/m*3 2.4 C 1.6 km/h
314 11-12-2021 02:05:00 2.4 C 5.48 g/m*3 2.4 C 0 km/h
315 11-12-2021 02:10:00 2.4 C 5.48 g/m*3 2.4 C 0 km/h
316 11-12-2021 02:15:00 2.4 C 5.48 g/m*3 2.4 C 3.2 km/h
317 11-12-2021 02:20:00 2.4 C 5.48 g/m*3 2.4 C 1.6 km/h
318 11-12-2021 02:25:00 2.3 C 5.44 g/m*3 2.3 C 0 km/h
319 11-12-2021 02:30:00 2.3 C 5.44 g/m*3 2.3 C 0 km/h
320 11-12-2021 02:35:00 2.3 C 5.44 g/m*3 2.3 C 0 km/h
321 11-12-2021 02:40:00 2.3 C 5.44 g/m*3 2.3 C 0 km/h
322 11-12-2021 02:45:00 2.3 C 5.44 g/m*3 2.3 C 0 km/h
323 11-12-2021 02:50:00 2.3 C 5.44 g/m*3 2.3 C 0 km/h
324 11-12-2021 02:55:00 2.3 C 5.44 g/m*3 2.3 C 0 km/h
325 11-12-2021 03:00:00 2.3 C 5.44 g/m*3 2.3 C 0 km/h
Sensor: Nr:Datum:Temp:Abs-Feuchte:Windchill:Wind:
Aussen-T/F 326 11-12-2021 03:05:00 2.3 C 5.44 g/m*3 2.3 C 0 km/h
327 11-12-2021 03:10:00 2.3 C 5.44 g/m*3 2.3 C 0 km/h
328 11-12-2021 03:15:00 2.3 C 5.44 g/m*3 2.3 C 0 km/h
329 11-12-2021 03:20:00 2.3 C 5.44 g/m*3 2.3 C 0 km/h
330 11-12-2021 03:25:00 2.4 C 5.48 g/m*3 2.4 C 0 km/h
331 11-12-2021 03:30:00 2.4 C 5.48 g/m*3 2.4 C 4.8 km/h
332 11-12-2021 03:35:00 2.4 C 5.48 g/m*3 2.4 C 3.2 km/h
333 11-12-2021 03:40:00 2.4 C 5.48 g/m*3 2.4 C 4.8 km/h
334 11-12-2021 03:45:00 2.5 C 5.52 g/m*3 2.5 C 0 km/h
335 11-12-2021 03:50:00 2.5 C 5.52 g/m*3 2.5 C 0 km/h
336 11-12-2021 03:55:00 2.5 C 5.52 g/m*3 2.5 C 0 km/h
337 11-12-2021 04:00:00 2.5 C 5.52 g/m*3 2.5 C 0 km/h
338 11-12-2021 04:05:00 2.5 C 5.52 g/m*3 2.5 C 0 km/h
339 11-12-2021 04:10:00 2.5 C 5.52 g/m*3 2.5 C 1.6 km/h
340 11-12-2021 04:15:00 2.5 C 5.52 g/m*3 2.5 C 0 km/h
341 11-12-2021 04:20:00 2.6 C 5.56 g/m*3 2.6 C 1.6 km/h
342 11-12-2021 04:25:00 2.6 C 5.56 g/m*3 2.6 C 0 km/h
343 11-12-2021 04:30:00 2.6 C 5.56 g/m*3 2.6 C 0 km/h
344 11-12-2021 04:35:00 2.6 C 5.56 g/m*3 2.6 C 0 km/h
345 11-12-2021 04:40:00 2.6 C 5.56 g/m*3 2.6 C 1.6 km/h
346 11-12-2021 04:45:00 2.6 C 5.56 g/m*3 2.6 C 4.8 km/h
347 11-12-2021 04:50:00 2.6 C 5.56 g/m*3 0.82 C 6.4 km/h
348 11-12-2021 04:55:00 2.6 C 5.56 g/m*3 2.6 C 4.8 km/h
349 11-12-2021 05:00:00 2.6 C 5.56 g/m*3 2.6 C 4.8 km/h
350 11-12-2021 05:05:00 2.7 C 5.59 g/m*3 0.94 C 6.4 km/h
Sensor: Nr:Datum:Temp:Abs-Feuchte:Windchill:Wind:
Aussen-T/F 351 11-12-2021 05:10:00 2.7 C 5.59 g/m*3 2.7 C 3.2 km/h
352 11-12-2021 05:15:00 2.7 C 5.59 g/m*3 2.7 C 4.8 km/h
353 11-12-2021 05:20:00 2.7 C 5.59 g/m*3 2.7 C 0 km/h
354 11-12-2021 05:25:00 2.7 C 5.59 g/m*3 2.7 C 3.2 km/h
355 11-12-2021 05:30:00 2.7 C 5.59 g/m*3 2.7 C 3.2 km/h
356 11-12-2021 05:35:00 2.7 C 5.59 g/m*3 2.7 C 4.8 km/h
357 11-12-2021 05:40:00 2.7 C 5.59 g/m*3 2.7 C 3.2 km/h
358 11-12-2021 05:45:00 2.7 C 5.59 g/m*3 2.7 C 0 km/h
359 11-12-2021 05:50:00 2.7 C 5.59 g/m*3 2.7 C 1.6 km/h
360 11-12-2021 05:55:00 2.7 C 5.59 g/m*3 2.7 C 1.6 km/h
361 11-12-2021 06:00:00 2.7 C 5.59 g/m*3 2.7 C 0 km/h
362 11-12-2021 06:05:00 2.7 C 5.59 g/m*3 2.7 C 0 km/h
363 11-12-2021 06:10:00 2.7 C 5.59 g/m*3 2.7 C 0 km/h
364 11-12-2021 06:15:00 2.7 C 5.59 g/m*3 2.7 C 0 km/h
365 11-12-2021 06:20:00 2.7 C 5.59 g/m*3 2.7 C 0 km/h
366 11-12-2021 06:25:00 2.7 C 5.59 g/m*3 2.7 C 0 km/h
367 11-12-2021 06:30:00 2.7 C 5.59 g/m*3 2.7 C 3.2 km/h
368 11-12-2021 06:35:00 2.7 C 5.59 g/m*3 2.7 C 0 km/h
369 11-12-2021 06:40:00 2.7 C 5.59 g/m*3 2.7 C 1.6 km/h
370 11-12-2021 06:45:00 2.7 C 5.59 g/m*3 2.7 C 3.2 km/h
371 11-12-2021 06:50:00 2.7 C 5.59 g/m*3 2.7 C 0 km/h
372 11-12-2021 06:55:00 2.7 C 5.59 g/m*3 2.7 C 0 km/h
373 11-12-2021 07:00:00 2.7 C 5.59 g/m*3 2.7 C 0 km/h
374 11-12-2021 07:05:00 2.7 C 5.59 g/m*3 2.7 C 0 km/h
375 11-12-2021 07:10:00 2.7 C 5.59 g/m*3 2.7 C 0 km/h
Sensor: Nr:Datum:Temp:Abs-Feuchte:Windchill:Wind:
Aussen-T/F 376 11-12-2021 07:15:00 2.7 C 5.59 g/m*3 2.7 C 0 km/h
377 11-12-2021 07:20:00 2.7 C 5.59 g/m*3 2.7 C 0 km/h
378 11-12-2021 07:25:00 2.7 C 5.59 g/m*3 2.7 C 0 km/h
379 11-12-2021 07:30:00 2.7 C 5.59 g/m*3 2.7 C 0 km/h
380 11-12-2021 07:35:00 2.6 C 5.56 g/m*3 2.6 C 0 km/h
381 11-12-2021 07:40:00 2.6 C 5.56 g/m*3 2.6 C 0 km/h
382 11-12-2021 07:45:00 2.7 C 5.59 g/m*3 2.7 C 1.6 km/h
383 11-12-2021 07:50:00 2.7 C 5.59 g/m*3 2.7 C 3.2 km/h
384 11-12-2021 07:55:00 2.6 C 5.56 g/m*3 2.6 C 1.6 km/h
385 11-12-2021 08:00:00 2.7 C 5.59 g/m*3 2.7 C 1.6 km/h
386 11-12-2021 08:05:00 2.7 C 5.59 g/m*3 2.7 C 3.2 km/h
387 11-12-2021 08:10:00 2.7 C 5.59 g/m*3 2.7 C 0 km/h
388 11-12-2021 08:15:00 2.7 C 5.59 g/m*3 2.7 C 0 km/h
389 11-12-2021 08:20:00 2.7 C 5.59 g/m*3 2.7 C 0 km/h
390 11-12-2021 08:25:00 2.7 C 5.59 g/m*3 2.7 C 0 km/h
391 11-12-2021 08:30:00 2.7 C 5.59 g/m*3 2.7 C 0 km/h
392 11-12-2021 08:35:00 2.7 C 5.59 g/m*3 2.7 C 0 km/h
393 11-12-2021 08:40:00 2.7 C 5.59 g/m*3 2.7 C 0 km/h
394 11-12-2021 08:45:00 2.7 C 5.59 g/m*3 2.7 C 0 km/h
395 11-12-2021 08:50:00 2.7 C 5.59 g/m*3 2.7 C 0 km/h
396 11-12-2021 08:55:00 2.7 C 5.59 g/m*3 2.7 C 0 km/h
397 11-12-2021 09:00:00 2.7 C 5.59 g/m*3 2.7 C 0 km/h
398 11-12-2021 09:05:00 2.6 C 5.56 g/m*3 2.6 C 1.6 km/h
399 11-12-2021 09:10:00 2.7 C 5.59 g/m*3 2.7 C 1.6 km/h
400 11-12-2021 09:15:00 2.7 C 5.59 g/m*3 2.7 C 1.6 km/h
Sensor: Nr:Datum:Temp:Abs-Feuchte:Windchill:Wind:
Aussen-T/F 401 11-12-2021 09:20:00 2.7 C 5.59 g/m*3 2.7 C 4.8 km/h
402 11-12-2021 09:25:00 2.7 C 5.59 g/m*3 2.7 C 4.8 km/h
403 11-12-2021 09:30:00 2.7 C 5.59 g/m*3 2.7 C 3.2 km/h
404 11-12-2021 09:35:00 2.7 C 5.59 g/m*3 2.7 C 1.6 km/h
405 11-12-2021 09:40:00 2.7 C 5.59 g/m*3 2.7 C 1.6 km/h
406 11-12-2021 09:45:00 2.8 C 5.63 g/m*3 2.8 C 1.6 km/h
407 11-12-2021 09:50:00 2.8 C 5.63 g/m*3 2.8 C 3.2 km/h
408 11-12-2021 09:55:00 2.8 C 5.63 g/m*3 0.52 C 8.1 km/h
409 11-12-2021 10:00:00 2.8 C 5.57 g/m*3 2.8 C 4.8 km/h
410 11-12-2021 10:05:00 2.8 C 5.57 g/m*3 1.05 C 6.4 km/h
411 11-12-2021 10:10:00 2.8 C 5.57 g/m*3 2.8 C 4.8 km/h
412 11-12-2021 10:15:00 2.9 C 5.61 g/m*3 2.9 C 4.8 km/h
413 11-12-2021 10:20:00 2.9 C 5.61 g/m*3 2.9 C 1.6 km/h
414 11-12-2021 10:25:00 2.9 C 5.61 g/m*3 2.9 C 0 km/h
415 11-12-2021 10:30:00 2.9 C 5.61 g/m*3 2.9 C 1.6 km/h
416 11-12-2021 10:35:00 3 C 5.65 g/m*3 3 C 0 km/h
417 11-12-2021 10:40:00 3.1 C 5.69 g/m*3 3.1 C 1.6 km/h
418 11-12-2021 10:45:00 3.2 C 5.72 g/m*3 3.2 C 1.6 km/h
419 11-12-2021 10:50:00 3.3 C 5.76 g/m*3 3.3 C 0 km/h
420 11-12-2021 10:55:00 3.3 C 5.76 g/m*3 3.3 C 1.6 km/h
421 11-12-2021 11:00:00 3.3 C 5.7 g/m*3 3.3 C 4.8 km/h
422 11-12-2021 11:05:00 3.3 C 5.7 g/m*3 1.63 C 6.4 km/h
423 11-12-2021 11:10:00 3.4 C 5.74 g/m*3 3.4 C 4.8 km/h
424 11-12-2021 11:15:00 3.4 C 5.74 g/m*3 3.4 C 4.8 km/h
425 11-12-2021 11:20:00 3.5 C 5.78 g/m*3 3.5 C 4.8 km/h
Sensor: Nr:Datum:Temp:Abs-Feuchte:Windchill:Wind:
Aussen-T/F 426 11-12-2021 11:25:00 3.5 C 5.78 g/m*3 3.5 C 1.6 km/h
427 11-12-2021 11:30:00 3.6 C 5.82 g/m*3 3.6 C 3.2 km/h
428 11-12-2021 11:35:00 3.6 C 5.82 g/m*3 3.6 C 4.8 km/h
429 11-12-2021 11:40:00 3.6 C 5.76 g/m*3 1.46 C 8.1 km/h
430 11-12-2021 11:45:00 3.6 C 5.76 g/m*3 1.46 C 8.1 km/h
431 11-12-2021 11:50:00 3.6 C 5.76 g/m*3 1.98 C 6.4 km/h
432 11-12-2021 11:55:00 3.6 C 5.69 g/m*3 1.98 C 6.4 km/h
433 11-12-2021 12:00:00 3.7 C 5.73 g/m*3 2.09 C 6.4 km/h
434 11-12-2021 12:05:00 3.7 C 5.8 g/m*3 2.09 C 6.4 km/h
435 11-12-2021 12:10:00 3.7 C 5.73 g/m*3 1.18 C 9.7 km/h
436 11-12-2021 12:15:00 3.8 C 5.77 g/m*3 1.7 C 8.1 km/h
437 11-12-2021 12:20:00 3.8 C 5.77 g/m*3 3.8 C 3.2 km/h
438 11-12-2021 12:25:00 3.8 C 5.77 g/m*3 3.8 C 4.8 km/h
439 11-12-2021 12:30:00 3.9 C 5.81 g/m*3 2.32 C 6.4 km/h
440 11-12-2021 12:35:00 3.9 C 5.81 g/m*3 1.82 C 8.1 km/h
441 11-12-2021 12:40:00 4 C 5.85 g/m*3 2.44 C 6.4 km/h
442 11-12-2021 12:45:00 4.1 C 5.89 g/m*3 4.1 C 4.8 km/h
443 11-12-2021 12:50:00 4.1 C 5.89 g/m*3 4.1 C 4.8 km/h
444 11-12-2021 12:55:00 4.2 C 5.93 g/m*3 2.17 C 8.1 km/h
445 11-12-2021 13:00:00 4.3 C 5.97 g/m*3 1.89 C 9.7 km/h
446 11-12-2021 13:05:00 4.4 C 6.01 g/m*3 1.67 C 11.3 km/h
447 11-12-2021 13:10:00 4.5 C 5.98 g/m*3 1.79 C 11.3 km/h
448 11-12-2021 13:15:00 4.6 C 6.02 g/m*3 1.91 C 11.3 km/h
449 11-12-2021 13:20:00 4.7 C 6.06 g/m*3 2.37 C 9.7 km/h
450 11-12-2021 13:25:00 4.7 C 6.06 g/m*3 2.76 C 8.1 km/h
Sensor: Nr:Datum:Temp:Abs-Feuchte:Windchill:Wind:
Aussen-T/F 451 11-12-2021 13:30:00 4.7 C 6.06 g/m*3 2.03 C 11.3 km/h
452 11-12-2021 13:35:00 4.7 C 6.06 g/m*3 2.76 C 8.1 km/h
453 11-12-2021 13:40:00 4.7 C 6.06 g/m*3 1.73 C 12.9 km/h
454 11-12-2021 13:45:00 4.7 C 6 g/m*3 1.73 C 12.9 km/h
455 11-12-2021 13:50:00 4.7 C 6.06 g/m*3 2.76 C 8.1 km/h
456 11-12-2021 13:55:00 4.8 C 6.1 g/m*3 2.15 C 11.3 km/h
457 11-12-2021 14:00:00 4.8 C 6.1 g/m*3 3.36 C 6.4 km/h
458 11-12-2021 14:05:00 4.8 C 6.1 g/m*3 2.87 C 8.1 km/h
459 11-12-2021 14:10:00 4.8 C 6.17 g/m*3 1.85 C 12.9 km/h
460 11-12-2021 14:15:00 4.9 C 6.14 g/m*3 2.61 C 9.7 km/h
461 11-12-2021 14:20:00 4.9 C 6.14 g/m*3 2.99 C 8.1 km/h
462 11-12-2021 14:25:00 4.9 C 6.14 g/m*3 3.48 C 6.4 km/h
463 11-12-2021 14:30:00 4.9 C 6.14 g/m*3 2.99 C 8.1 km/h
464 11-12-2021 14:35:00 4.9 C 6.14 g/m*3 2.61 C 9.7 km/h
465 11-12-2021 14:40:00 4.9 C 6.14 g/m*3 3.48 C 6.4 km/h
466 11-12-2021 14:45:00 4.9 C 6.14 g/m*3 3.48 C 6.4 km/h
467 11-12-2021 14:50:00 4.9 C 6.21 g/m*3 4.9 C 4.8 km/h
468 11-12-2021 14:55:00 4.9 C 6.21 g/m*3 4.9 C 4.8 km/h
469 11-12-2021 15:00:00 4.9 C 6.21 g/m*3 2.99 C 8.1 km/h
470 11-12-2021 15:05:00 4.9 C 6.21 g/m*3 4.9 C 4.8 km/h
471 11-12-2021 15:10:00 4.9 C 6.28 g/m*3 2.99 C 8.1 km/h
472 11-12-2021 15:15:00 4.9 C 6.28 g/m*3 4.9 C 4.8 km/h
473 11-12-2021 15:20:00 4.9 C 6.28 g/m*3 3.48 C 6.4 km/h
474 11-12-2021 15:25:00 4.9 C 6.35 g/m*3 1.97 C 12.9 km/h
475 11-12-2021 15:30:00 4.9 C 6.28 g/m*3 2.27 C 11.3 km/h
Sensor: Nr:Datum:Temp:Abs-Feuchte:Windchill:Wind:
Aussen-T/F 476 11-12-2021 15:35:00 4.9 C 6.35 g/m*3 2.99 C 8.1 km/h
477 11-12-2021 15:40:00 4.9 C 6.35 g/m*3 2.99 C 8.1 km/h
478 11-12-2021 15:45:00 4.9 C 6.35 g/m*3 3.48 C 6.4 km/h
479 11-12-2021 15:50:00 4.9 C 6.35 g/m*3 4.9 C 4.8 km/h
480 11-12-2021 15:55:00 4.8 C 6.3 g/m*3 4.8 C 3.2 km/h
481 11-12-2021 16:00:00 4.8 C 6.3 g/m*3 4.8 C 1.6 km/h
482 11-12-2021 16:05:00 4.8 C 6.3 g/m*3 3.36 C 6.4 km/h
483 11-12-2021 16:10:00 4.8 C 6.37 g/m*3 4.8 C 4.8 km/h
484 11-12-2021 16:15:00 4.8 C 6.37 g/m*3 4.8 C 3.2 km/h
485 11-12-2021 16:20:00 4.8 C 6.37 g/m*3 4.8 C 4.8 km/h
486 11-12-2021 16:25:00 4.8 C 6.37 g/m*3 3.36 C 6.4 km/h
487 11-12-2021 16:30:00 4.8 C 6.37 g/m*3 4.8 C 4.8 km/h
488 11-12-2021 16:35:00 4.8 C 6.37 g/m*3 3.36 C 6.4 km/h
489 11-12-2021 16:40:00 4.8 C 6.37 g/m*3 2.87 C 8.1 km/h
490 11-12-2021 16:45:00 4.8 C 6.37 g/m*3 2.87 C 8.1 km/h
491 11-12-2021 16:50:00 4.8 C 6.37 g/m*3 2.49 C 9.7 km/h
492 11-12-2021 16:55:00 4.7 C 6.33 g/m*3 2.37 C 9.7 km/h
493 11-12-2021 17:00:00 4.7 C 6.33 g/m*3 2.03 C 11.3 km/h
494 11-12-2021 17:05:00 4.7 C 6.33 g/m*3 2.37 C 9.7 km/h
495 11-12-2021 17:10:00 4.8 C 6.3 g/m*3 2.49 C 9.7 km/h
496 11-12-2021 17:15:00 4.8 C 6.3 g/m*3 4.8 C 4.8 km/h
497 11-12-2021 17:20:00 4.8 C 6.3 g/m*3 2.49 C 9.7 km/h
498 11-12-2021 17:25:00 4.8 C 6.3 g/m*3 2.15 C 11.3 km/h
499 11-12-2021 17:30:00 4.8 C 6.3 g/m*3 2.15 C 11.3 km/h
500 11-12-2021 17:35:00 4.8 C 6.3 g/m*3 2.15 C 11.3 km/h
Sensor: Nr:Datum:Temp:Abs-Feuchte:Windchill:Wind:
Aussen-T/F 501 11-12-2021 17:40:00 4.8 C 6.3 g/m*3 2.87 C 8.1 km/h
502 11-12-2021 17:45:00 4.8 C 6.3 g/m*3 2.49 C 9.7 km/h
503 11-12-2021 17:50:00 4.7 C 6.26 g/m*3 2.76 C 8.1 km/h
504 11-12-2021 17:55:00 4.7 C 6.26 g/m*3 2.37 C 9.7 km/h
505 11-12-2021 18:00:00 4.7 C 6.26 g/m*3 2.37 C 9.7 km/h
506 11-12-2021 18:05:00 4.7 C 6.26 g/m*3 2.03 C 11.3 km/h
507 11-12-2021 18:10:00 4.7 C 6.26 g/m*3 2.37 C 9.7 km/h
508 11-12-2021 18:15:00 4.7 C 6.26 g/m*3 2.76 C 8.1 km/h
509 11-12-2021 18:20:00 4.7 C 6.19 g/m*3 2.37 C 9.7 km/h
510 11-12-2021 18:25:00 4.7 C 6.19 g/m*3 2.37 C 9.7 km/h
511 11-12-2021 18:30:00 4.7 C 6.19 g/m*3 2.76 C 8.1 km/h
512 11-12-2021 18:35:00 4.7 C 6.19 g/m*3 1.21 C 16.1 km/h
513 11-12-2021 18:40:00 4.6 C 6.15 g/m*3 1.09 C 16.1 km/h
514 11-12-2021 18:45:00 4.6 C 6.15 g/m*3 1.91 C 11.3 km/h
515 11-12-2021 18:50:00 4.6 C 6.15 g/m*3 1.09 C 16.1 km/h
516 11-12-2021 18:55:00 4.6 C 6.09 g/m*3 1.34 C 14.5 km/h
517 11-12-2021 19:00:00 4.6 C 6.09 g/m*3 1.61 C 12.9 km/h
518 11-12-2021 19:05:00 4.7 C 6.13 g/m*3 1.46 C 14.5 km/h
519 11-12-2021 19:10:00 4.7 C 6.06 g/m*3 2.03 C 11.3 km/h
520 11-12-2021 19:15:00 4.7 C 6.06 g/m*3 2.76 C 8.1 km/h
521 11-12-2021 19:20:00 4.6 C 6.02 g/m*3 0.86 C 17.7 km/h
522 11-12-2021 19:25:00 4.7 C 6.06 g/m*3 1.46 C 14.5 km/h
523 11-12-2021 19:30:00 4.7 C 6 g/m*3 0.99 C 17.7 km/h
524 11-12-2021 19:35:00 4.7 C 6 g/m*3 1.46 C 14.5 km/h
525 11-12-2021 19:40:00 4.7 C 6 g/m*3 1.21 C 16.1 km/h
Sensor: Nr:Datum:Temp:Abs-Feuchte:Windchill:Wind:
Aussen-T/F 526 11-12-2021 19:45:00 4.7 C 6 g/m*3 1.46 C 14.5 km/h
527 11-12-2021 19:50:00 4.7 C 6 g/m*3 2.03 C 11.3 km/h
528 11-12-2021 19:55:00 4.6 C 5.96 g/m*3 1.91 C 11.3 km/h
529 11-12-2021 20:00:00 4.6 C 5.96 g/m*3 1.34 C 14.5 km/h
530 11-12-2021 20:05:00 4.6 C 5.96 g/m*3 1.34 C 14.5 km/h
531 11-12-2021 20:10:00 4.6 C 5.96 g/m*3 1.34 C 14.5 km/h
532 11-12-2021 20:15:00 4.5 C 5.92 g/m*3 1.48 C 12.9 km/h
533 11-12-2021 20:20:00 4.5 C 5.85 g/m*3 1.21 C 14.5 km/h
534 11-12-2021 20:25:00 4.4 C 5.81 g/m*3 1.36 C 12.9 km/h
535 11-12-2021 20:30:00 4.4 C 5.81 g/m*3 1.36 C 12.9 km/h
536 11-12-2021 20:35:00 4.4 C 5.81 g/m*3 1.67 C 11.3 km/h
537 11-12-2021 20:40:00 4.4 C 5.81 g/m*3 1.36 C 12.9 km/h
538 11-12-2021 20:45:00 4.4 C 5.81 g/m*3 1.67 C 11.3 km/h
539 11-12-2021 20:50:00 4.4 C 5.81 g/m*3 1.36 C 12.9 km/h
540 11-12-2021 20:55:00 4.3 C 5.77 g/m*3 0.49 C 17.7 km/h
541 11-12-2021 21:00:00 4.3 C 5.71 g/m*3 0.97 C 14.5 km/h
542 11-12-2021 21:05:00 4.3 C 5.71 g/m*3 0.97 C 14.5 km/h
543 11-12-2021 21:10:00 4.2 C 5.67 g/m*3 1.12 C 12.9 km/h
544 11-12-2021 21:15:00 4.1 C 5.63 g/m*3 0.24 C 17.7 km/h
545 11-12-2021 21:20:00 3.9 C 5.56 g/m*3 0.47 C 14.5 km/h
546 11-12-2021 21:25:00 3.8 C 5.58 g/m*3 0.63 C 12.9 km/h
547 11-12-2021 21:30:00 3.7 C 5.55 g/m*3 0.23 C 14.5 km/h
548 11-12-2021 21:35:00 3.6 C 5.51 g/m*3 0.39 C 12.9 km/h
549 11-12-2021 21:40:00 3.6 C 5.51 g/m*3 0.7 C 11.3 km/h
550 11-12-2021 21:45:00 3.5 C 5.47 g/m*3 0.27 C 12.9 km/h
Sensor: Nr:Datum:Temp:Abs-Feuchte:Windchill:Wind:
Aussen-T/F 551 11-12-2021 21:50:00 3.4 C 5.5 g/m*3 0.46 C 11.3 km/h
552 11-12-2021 21:55:00 3.3 C 5.4 g/m*3 0.02 C 12.9 km/h
553 11-12-2021 22:00:00 3.2 C 5.42 g/m*3 0.99 C 8.1 km/h
554 11-12-2021 22:05:00 3.2 C 5.42 g/m*3 -0.1 C 12.9 km/h
555 11-12-2021 22:10:00 3.2 C 5.42 g/m*3 -0.39 C 14.5 km/h
556 11-12-2021 22:15:00 3.2 C 5.42 g/m*3 0.58 C 9.7 km/h
557 11-12-2021 22:20:00 3.3 C 5.46 g/m*3 0.02 C 12.9 km/h
558 11-12-2021 22:25:00 3.2 C 5.42 g/m*3 0.22 C 11.3 km/h
559 11-12-2021 22:30:00 3.2 C 5.42 g/m*3 0.22 C 11.3 km/h
560 11-12-2021 22:35:00 3.1 C 5.39 g/m*3 0.46 C 9.7 km/h
561 11-12-2021 22:40:00 2.9 C 5.32 g/m*3 0.22 C 9.7 km/h
562 11-12-2021 22:45:00 2.8 C 5.28 g/m*3 1.05 C 6.4 km/h
563 11-12-2021 22:50:00 2.8 C 5.34 g/m*3 0.1 C 9.7 km/h
564 11-12-2021 22:55:00 2.7 C 5.3 g/m*3 -0.38 C 11.3 km/h
565 11-12-2021 23:00:00 2.7 C 5.3 g/m*3 -0.38 C 11.3 km/h
566 11-12-2021 23:05:00 2.6 C 5.27 g/m*3 -0.5 C 11.3 km/h
567 11-12-2021 23:10:00 2.7 C 5.36 g/m*3 0.4 C 8.1 km/h
568 11-12-2021 23:15:00 2.6 C 5.27 g/m*3 -0.14 C 9.7 km/h
569 11-12-2021 23:20:00 2.5 C 5.29 g/m*3 -0.62 C 11.3 km/h
570 11-12-2021 23:25:00 2.5 C 5.29 g/m*3 0.17 C 8.1 km/h
571 11-12-2021 23:30:00 2.4 C 5.25 g/m*3 2.4 C 4.8 km/h
572 11-12-2021 23:35:00 2.4 C 5.25 g/m*3 0.05 C 8.1 km/h
573 11-12-2021 23:40:00 2.4 C 5.25 g/m*3 -0.74 C 11.3 km/h
574 11-12-2021 23:45:00 2.7 C 5.36 g/m*3 -1 C 14.5 km/h
575 11-12-2021 23:50:00 2.8 C 5.4 g/m*3 0.1 C 9.7 km/h
Sensor: Nr:Datum:Temp:Abs-Feuchte:Windchill:Wind:
Aussen-T/F 576 11-12-2021 23:55:00 2.8 C 5.34 g/m*3 -0.26 C 11.3 km/h
577 12-12-2021 00:00:00 2.9 C 5.37 g/m*3 0.22 C 9.7 km/h
578 12-12-2021 00:05:00 3 C 5.41 g/m*3 1.28 C 6.4 km/h
579 12-12-2021 00:10:00 3.1 C 5.45 g/m*3 3.1 C 3.2 km/h
580 12-12-2021 00:15:00 3 C 5.41 g/m*3 3 C 1.6 km/h
581 12-12-2021 00:20:00 2.9 C 5.32 g/m*3 2.9 C 0 km/h
582 12-12-2021 00:25:00 2.7 C 5.24 g/m*3 2.7 C 0 km/h
583 12-12-2021 00:30:00 2.5 C 5.17 g/m*3 2.5 C 0 km/h
584 12-12-2021 00:35:00 2.3 C 5.1 g/m*3 2.3 C 0 km/h
585 12-12-2021 00:40:00 2.1 C 5.04 g/m*3 2.1 C 0 km/h
586 12-12-2021 00:45:00 1.8 C 4.93 g/m*3 1.8 C 0 km/h
587 12-12-2021 00:50:00 1.6 C 4.87 g/m*3 1.6 C 1.6 km/h
588 12-12-2021 00:55:00 1.4 C 4.85 g/m*3 1.4 C 1.6 km/h
589 12-12-2021 01:00:00 1.3 C 4.82 g/m*3 1.3 C 1.6 km/h
590 12-12-2021 01:05:00 1.2 C 4.84 g/m*3 1.2 C 0 km/h
591 12-12-2021 01:10:00 1.2 C 4.84 g/m*3 1.2 C 0 km/h
592 12-12-2021 01:15:00 1.2 C 4.89 g/m*3 1.2 C 0 km/h
593 12-12-2021 01:20:00 1.1 C 4.81 g/m*3 1.1 C 0 km/h
594 12-12-2021 01:25:00 1.1 C 4.86 g/m*3 1.1 C 0 km/h
595 12-12-2021 01:30:00 0.9 C 4.79 g/m*3 0.9 C 0 km/h
596 12-12-2021 01:35:00 0.8 C 4.71 g/m*3 0.8 C 0 km/h
597 12-12-2021 01:40:00 0.7 C 4.73 g/m*3 0.7 C 0 km/h
598 12-12-2021 01:45:00 0.7 C 4.73 g/m*3 0.7 C 0 km/h
599 12-12-2021 01:50:00 0.6 C 4.7 g/m*3 0.6 C 0 km/h
600 12-12-2021 01:55:00 0.7 C 4.78 g/m*3 0.7 C 0 km/h
Sensor: Nr:Datum:Temp:Abs-Feuchte:Windchill:Wind:
Aussen-T/F 601 12-12-2021 02:00:00 0.7 C 4.78 g/m*3 0.7 C 0 km/h
602 12-12-2021 02:05:00 0.7 C 4.78 g/m*3 0.7 C 0 km/h
603 12-12-2021 02:10:00 0.8 C 4.81 g/m*3 0.8 C 0 km/h
604 12-12-2021 02:15:00 0.8 C 4.81 g/m*3 0.8 C 0 km/h
605 12-12-2021 02:20:00 0.8 C 4.81 g/m*3 0.8 C 0 km/h
606 12-12-2021 02:25:00 0.8 C 4.81 g/m*3 0.8 C 0 km/h
607 12-12-2021 02:30:00 0.8 C 4.81 g/m*3 0.8 C 0 km/h
608 12-12-2021 02:35:00 0.8 C 4.81 g/m*3 0.8 C 0 km/h
609 12-12-2021 02:40:00 0.8 C 4.81 g/m*3 0.8 C 0 km/h
610 12-12-2021 02:45:00 0.8 C 4.81 g/m*3 0.8 C 0 km/h
611 12-12-2021 02:50:00 0.8 C 4.81 g/m*3 0.8 C 0 km/h
612 12-12-2021 02:55:00 0.8 C 4.81 g/m*3 0.8 C 0 km/h
613 12-12-2021 03:00:00 0.8 C 4.81 g/m*3 0.8 C 0 km/h
614 12-12-2021 03:05:00 0.8 C 4.81 g/m*3 0.8 C 0 km/h
615 12-12-2021 03:10:00 0.8 C 4.86 g/m*3 0.8 C 0 km/h
616 12-12-2021 03:15:00 0.8 C 4.86 g/m*3 0.8 C 1.6 km/h
617 12-12-2021 03:20:00 0.9 C 4.9 g/m*3 0.9 C 0 km/h
618 12-12-2021 03:25:00 0.9 C 4.9 g/m*3 0.9 C 0 km/h
619 12-12-2021 03:30:00 1.1 C 4.96 g/m*3 1.1 C 1.6 km/h
620 12-12-2021 03:35:00 1.2 C 5 g/m*3 1.2 C 3.2 km/h
621 12-12-2021 03:40:00 1.5 C 5.16 g/m*3 -1.45 C 9.7 km/h
622 12-12-2021 03:45:00 1.8 C 5.26 g/m*3 1.8 C 4.8 km/h
623 12-12-2021 03:50:00 2.2 C 5.41 g/m*3 0.36 C 6.4 km/h
624 12-12-2021 03:55:00 2.5 C 5.52 g/m*3 -0.26 C 9.7 km/h
625 12-12-2021 04:00:00 2.7 C 5.59 g/m*3 0.4 C 8.1 km/h
Sensor: Nr:Datum:Temp:Abs-Feuchte:Windchill:Wind:
Aussen-T/F 626 12-12-2021 04:05:00 2.7 C 5.59 g/m*3 2.7 C 4.8 km/h
627 12-12-2021 04:10:00 2.8 C 5.63 g/m*3 2.8 C 4.8 km/h
628 12-12-2021 04:15:00 2.9 C 5.67 g/m*3 1.17 C 6.4 km/h
629 12-12-2021 04:20:00 3 C 5.71 g/m*3 1.28 C 6.4 km/h
630 12-12-2021 04:25:00 3.1 C 5.75 g/m*3 1.4 C 6.4 km/h
631 12-12-2021 04:30:00 3.2 C 5.79 g/m*3 1.51 C 6.4 km/h
632 12-12-2021 04:35:00 3.3 C 5.76 g/m*3 3.3 C 3.2 km/h
633 12-12-2021 04:40:00 3.3 C 5.76 g/m*3 3.3 C 3.2 km/h
634 12-12-2021 04:45:00 3.3 C 5.76 g/m*3 3.3 C 3.2 km/h
635 12-12-2021 04:50:00 3.3 C 5.76 g/m*3 1.63 C 6.4 km/h
636 12-12-2021 04:55:00 3.4 C 5.8 g/m*3 1.75 C 6.4 km/h
637 12-12-2021 05:00:00 3.4 C 5.8 g/m*3 3.4 C 0 km/h
638 12-12-2021 05:05:00 3.4 C 5.8 g/m*3 3.4 C 0 km/h
639 12-12-2021 05:10:00 3.4 C 5.8 g/m*3 3.4 C 0 km/h
640 12-12-2021 05:15:00 3.4 C 5.8 g/m*3 3.4 C 0 km/h
641 12-12-2021 05:20:00 3.4 C 5.8 g/m*3 3.4 C 1.6 km/h
642 12-12-2021 05:25:00 3.4 C 5.8 g/m*3 3.4 C 0 km/h
643 12-12-2021 05:30:00 3.4 C 5.8 g/m*3 3.4 C 0 km/h
644 12-12-2021 05:35:00 3.4 C 5.8 g/m*3 3.4 C 0 km/h
645 12-12-2021 05:40:00 3.3 C 5.76 g/m*3 3.3 C 0 km/h
646 12-12-2021 05:45:00 3.4 C 5.8 g/m*3 3.4 C 0 km/h
647 12-12-2021 05:50:00 3.4 C 5.8 g/m*3 3.4 C 0 km/h
648 12-12-2021 05:55:00 3.4 C 5.8 g/m*3 3.4 C 1.6 km/h
649 12-12-2021 06:00:00 3.6 C 5.88 g/m*3 3.6 C 0 km/h
650 12-12-2021 06:05:00 3.6 C 5.88 g/m*3 3.6 C 0 km/h
Sensor: Nr:Datum:Temp:Abs-Feuchte:Windchill:Wind:
Aussen-T/F 651 12-12-2021 06:10:00 3.6 C 5.88 g/m*3 3.6 C 1.6 km/h
652 12-12-2021 06:15:00 3.6 C 5.88 g/m*3 3.6 C 0 km/h
653 12-12-2021 06:20:00 3.7 C 5.92 g/m*3 3.7 C 1.6 km/h
654 12-12-2021 06:25:00 3.7 C 5.92 g/m*3 3.7 C 0 km/h
655 12-12-2021 06:30:00 3.7 C 5.92 g/m*3 2.09 C 6.4 km/h
656 12-12-2021 06:35:00 3.8 C 5.96 g/m*3 3.8 C 3.2 km/h
657 12-12-2021 06:40:00 3.8 C 5.96 g/m*3 3.8 C 3.2 km/h
658 12-12-2021 06:45:00 3.9 C 6 g/m*3 3.9 C 4.8 km/h
659 12-12-2021 06:50:00 3.9 C 6 g/m*3 3.9 C 1.6 km/h
660 12-12-2021 06:55:00 4 C 6.04 g/m*3 1.93 C 8.1 km/h
661 12-12-2021 07:00:00 4.1 C 6.02 g/m*3 2.05 C 8.1 km/h
662 12-12-2021 07:05:00 4.1 C 6.02 g/m*3 2.55 C 6.4 km/h
663 12-12-2021 07:10:00 4.2 C 6.06 g/m*3 4.2 C 0 km/h
664 12-12-2021 07:15:00 4.2 C 6.06 g/m*3 4.2 C 1.6 km/h
665 12-12-2021 07:20:00 4.3 C 6.1 g/m*3 4.3 C 0 km/h
666 12-12-2021 07:25:00 4.3 C 6.1 g/m*3 4.3 C 0 km/h
667 12-12-2021 07:30:00 4.3 C 6.1 g/m*3 4.3 C 3.2 km/h
668 12-12-2021 07:35:00 4.3 C 6.1 g/m*3 4.3 C 0 km/h
669 12-12-2021 07:40:00 4.3 C 6.1 g/m*3 4.3 C 3.2 km/h
670 12-12-2021 07:45:00 4.4 C 6.14 g/m*3 4.4 C 0 km/h
671 12-12-2021 07:50:00 4.4 C 6.14 g/m*3 4.4 C 4.8 km/h
672 12-12-2021 07:55:00 4.4 C 6.14 g/m*3 4.4 C 4.8 km/h
673 12-12-2021 08:00:00 4.5 C 6.18 g/m*3 4.5 C 3.2 km/h
674 12-12-2021 08:05:00 4.6 C 6.22 g/m*3 4.6 C 4.8 km/h
675 12-12-2021 08:10:00 4.6 C 6.22 g/m*3 4.6 C 4.8 km/h
Sensor: Nr:Datum:Temp:Abs-Feuchte:Windchill:Wind:
Aussen-T/F 676 12-12-2021 08:15:00 4.7 C 6.26 g/m*3 3.25 C 6.4 km/h
677 12-12-2021 08:20:00 4.7 C 6.26 g/m*3 4.7 C 1.6 km/h
678 12-12-2021 08:25:00 4.7 C 6.26 g/m*3 4.7 C 3.2 km/h
679 12-12-2021 08:30:00 4.7 C 6.26 g/m*3 4.7 C 0 km/h
680 12-12-2021 08:35:00 4.7 C 6.26 g/m*3 4.7 C 3.2 km/h
681 12-12-2021 08:40:00 4.7 C 6.26 g/m*3 4.7 C 3.2 km/h
682 12-12-2021 08:45:00 4.7 C 6.26 g/m*3 4.7 C 0 km/h
683 12-12-2021 08:50:00 4.7 C 6.26 g/m*3 4.7 C 0 km/h
684 12-12-2021 08:55:00 4.7 C 6.26 g/m*3 4.7 C 3.2 km/h
685 12-12-2021 09:00:00 4.7 C 6.26 g/m*3 4.7 C 1.6 km/h
686 12-12-2021 09:05:00 4.7 C 6.33 g/m*3 4.7 C 0 km/h
687 12-12-2021 09:10:00 4.8 C 6.37 g/m*3 4.8 C 0 km/h
688 12-12-2021 09:15:00 4.8 C 6.37 g/m*3 4.8 C 0 km/h
689 12-12-2021 09:20:00 4.8 C 6.37 g/m*3 4.8 C 4.8 km/h
690 12-12-2021 09:25:00 4.8 C 6.37 g/m*3 4.8 C 0 km/h
691 12-12-2021 09:30:00 4.8 C 6.37 g/m*3 4.8 C 1.6 km/h
692 12-12-2021 09:35:00 4.9 C 6.41 g/m*3 4.9 C 1.6 km/h
693 12-12-2021 09:40:00 4.9 C 6.41 g/m*3 4.9 C 4.8 km/h
694 12-12-2021 09:45:00 4.9 C 6.41 g/m*3 4.9 C 3.2 km/h
695 12-12-2021 09:50:00 5 C 6.46 g/m*3 5 C 3.2 km/h
696 12-12-2021 09:55:00 5.1 C 6.5 g/m*3 5.1 C 3.2 km/h
697 12-12-2021 10:00:00 5.1 C 6.5 g/m*3 5.1 C 3.2 km/h
698 12-12-2021 10:05:00 5.2 C 6.54 g/m*3 3.82 C 6.4 km/h
699 12-12-2021 10:10:00 5.2 C 6.54 g/m*3 3.34 C 8.1 km/h
700 12-12-2021 10:15:00 5.3 C 6.58 g/m*3 3.46 C 8.1 km/h
Sensor: Nr:Datum:Temp:Abs-Feuchte:Windchill:Wind:
Aussen-T/F 701 12-12-2021 10:20:00 5.3 C 6.58 g/m*3 2.75 C 11.3 km/h
702 12-12-2021 10:25:00 5.4 C 6.63 g/m*3 3.58 C 8.1 km/h
703 12-12-2021 10:30:00 5.4 C 6.63 g/m*3 2.87 C 11.3 km/h
704 12-12-2021 10:35:00 5.4 C 6.63 g/m*3 4.06 C 6.4 km/h
705 12-12-2021 10:40:00 5.5 C 6.67 g/m*3 4.17 C 6.4 km/h
706 12-12-2021 10:45:00 5.5 C 6.67 g/m*3 4.17 C 6.4 km/h
707 12-12-2021 10:50:00 5.5 C 6.67 g/m*3 2.7 C 12.9 km/h
708 12-12-2021 10:55:00 5.6 C 6.72 g/m*3 3.81 C 8.1 km/h
709 12-12-2021 11:00:00 5.6 C 6.72 g/m*3 2.33 C 16.1 km/h
710 12-12-2021 11:05:00 5.6 C 6.72 g/m*3 2.33 C 16.1 km/h
711 12-12-2021 11:10:00 5.6 C 6.72 g/m*3 2.57 C 14.5 km/h
712 12-12-2021 11:15:00 5.7 C 6.76 g/m*3 3.56 C 9.7 km/h
713 12-12-2021 11:20:00 5.7 C 6.76 g/m*3 3.23 C 11.3 km/h
714 12-12-2021 11:25:00 5.7 C 6.76 g/m*3 2.95 C 12.9 km/h
715 12-12-2021 11:30:00 5.8 C 6.81 g/m*3 3.36 C 11.3 km/h
716 12-12-2021 11:35:00 5.8 C 6.81 g/m*3 3.36 C 11.3 km/h
717 12-12-2021 11:40:00 5.8 C 6.73 g/m*3 3.36 C 11.3 km/h
718 12-12-2021 11:45:00 5.8 C 6.73 g/m*3 4.52 C 6.4 km/h
719 12-12-2021 11:50:00 5.8 C 6.73 g/m*3 4.52 C 6.4 km/h
720 12-12-2021 11:55:00 5.9 C 6.78 g/m*3 4.63 C 6.4 km/h
721 12-12-2021 12:00:00 5.9 C 6.78 g/m*3 3.8 C 9.7 km/h
722 12-12-2021 12:05:00 5.9 C 6.78 g/m*3 4.17 C 8.1 km/h
723 12-12-2021 12:10:00 5.9 C 6.78 g/m*3 3.8 C 9.7 km/h
724 12-12-2021 12:15:00 5.9 C 6.78 g/m*3 4.17 C 8.1 km/h
725 12-12-2021 12:20:00 5.9 C 6.78 g/m*3 4.17 C 8.1 km/h
Sensor: Nr:Datum:Temp:Abs-Feuchte:Windchill:Wind:
Aussen-T/F 726 12-12-2021 12:25:00 5.9 C 6.78 g/m*3 4.63 C 6.4 km/h
727 12-12-2021 12:30:00 5.9 C 6.78 g/m*3 4.63 C 6.4 km/h
728 12-12-2021 12:35:00 6 C 6.82 g/m*3 6 C 4.8 km/h
729 12-12-2021 12:40:00 6 C 6.82 g/m*3 4.28 C 8.1 km/h
730 12-12-2021 12:45:00 6 C 6.82 g/m*3 3.06 C 14.5 km/h
731 12-12-2021 12:50:00 6 C 6.75 g/m*3 3.31 C 12.9 km/h
732 12-12-2021 12:55:00 6.1 C 6.79 g/m*3 3.18 C 14.5 km/h
733 12-12-2021 13:00:00 6.1 C 6.79 g/m*3 2.35 C 20.9 km/h
734 12-12-2021 13:05:00 6.1 C 6.79 g/m*3 3.18 C 14.5 km/h
735 12-12-2021 13:10:00 6.2 C 6.84 g/m*3 3.07 C 16.1 km/h
736 12-12-2021 13:15:00 6.2 C 6.84 g/m*3 3.84 C 11.3 km/h
737 12-12-2021 13:20:00 6.1 C 6.79 g/m*3 3.18 C 14.5 km/h
738 12-12-2021 13:25:00 6.2 C 6.84 g/m*3 3.3 C 14.5 km/h
739 12-12-2021 13:30:00 6.2 C 6.84 g/m*3 3.56 C 12.9 km/h
740 12-12-2021 13:35:00 6.2 C 6.84 g/m*3 3.56 C 12.9 km/h
741 12-12-2021 13:40:00 6.2 C 6.84 g/m*3 2.86 C 17.7 km/h
742 12-12-2021 13:45:00 6.2 C 6.77 g/m*3 3.07 C 16.1 km/h
743 12-12-2021 13:50:00 6.3 C 6.81 g/m*3 3.2 C 16.1 km/h
744 12-12-2021 13:55:00 6.3 C 6.81 g/m*3 3.2 C 16.1 km/h
745 12-12-2021 14:00:00 6.3 C 6.81 g/m*3 3.2 C 16.1 km/h
746 12-12-2021 14:05:00 6.4 C 6.85 g/m*3 3.55 C 14.5 km/h
747 12-12-2021 14:10:00 6.4 C 6.85 g/m*3 2.91 C 19.3 km/h
748 12-12-2021 14:15:00 6.5 C 6.9 g/m*3 3.44 C 16.1 km/h
749 12-12-2021 14:20:00 6.6 C 6.95 g/m*3 3.57 C 16.1 km/h
750 12-12-2021 14:25:00 6.6 C 6.95 g/m*3 4.04 C 12.9 km/h
Sensor: Nr:Datum:Temp:Abs-Feuchte:Windchill:Wind:
Aussen-T/F 751 12-12-2021 14:30:00 6.6 C 6.95 g/m*3 4.32 C 11.3 km/h
752 12-12-2021 14:35:00 6.6 C 6.87 g/m*3 3.17 C 19.3 km/h
753 12-12-2021 14:40:00 6.6 C 6.87 g/m*3 3.17 C 19.3 km/h
754 12-12-2021 14:45:00 6.5 C 6.82 g/m*3 3.23 C 17.7 km/h
755 12-12-2021 14:50:00 6.5 C 6.82 g/m*3 3.67 C 14.5 km/h
756 12-12-2021 14:55:00 6.5 C 6.9 g/m*3 3.92 C 12.9 km/h
757 12-12-2021 15:00:00 6.5 C 6.82 g/m*3 3.23 C 17.7 km/h
758 12-12-2021 15:05:00 6.6 C 6.87 g/m*3 3.36 C 17.7 km/h
759 12-12-2021 15:10:00 6.5 C 6.82 g/m*3 3.67 C 14.5 km/h
760 12-12-2021 15:15:00 6.6 C 6.95 g/m*3 4.04 C 12.9 km/h
761 12-12-2021 15:20:00 6.6 C 6.87 g/m*3 3.57 C 16.1 km/h
762 12-12-2021 15:25:00 6.6 C 6.87 g/m*3 3.79 C 14.5 km/h
763 12-12-2021 15:30:00 6.6 C 6.87 g/m*3 3.79 C 14.5 km/h
764 12-12-2021 15:35:00 6.6 C 6.87 g/m*3 3.79 C 14.5 km/h
765 12-12-2021 15:40:00 6.6 C 6.87 g/m*3 3.79 C 14.5 km/h
766 12-12-2021 15:45:00 6.6 C 6.87 g/m*3 4.04 C 12.9 km/h
767 12-12-2021 15:50:00 6.6 C 6.87 g/m*3 3.36 C 17.7 km/h
768 12-12-2021 15:55:00 6.5 C 6.9 g/m*3 4.2 C 11.3 km/h
769 12-12-2021 16:00:00 6.5 C 6.9 g/m*3 3.92 C 12.9 km/h
770 12-12-2021 16:05:00 6.5 C 6.9 g/m*3 3.67 C 14.5 km/h
771 12-12-2021 16:10:00 6.5 C 6.9 g/m*3 3.44 C 16.1 km/h
772 12-12-2021 16:15:00 6.5 C 6.9 g/m*3 4.2 C 11.3 km/h
773 12-12-2021 16:20:00 6.6 C 6.95 g/m*3 3.79 C 14.5 km/h
774 12-12-2021 16:25:00 6.5 C 6.9 g/m*3 4.51 C 9.7 km/h
775 12-12-2021 16:30:00 6.5 C 6.9 g/m*3 3.67 C 14.5 km/h
Sensor: Nr:Datum:Temp:Abs-Feuchte:Windchill:Wind:
Aussen-T/F 776 12-12-2021 16:35:00 6.6 C 6.95 g/m*3 3.57 C 16.1 km/h
777 12-12-2021 16:40:00 6.6 C 6.95 g/m*3 4.04 C 12.9 km/h
778 12-12-2021 16:45:00 6.6 C 6.95 g/m*3 4.32 C 11.3 km/h
779 12-12-2021 16:50:00 6.6 C 6.95 g/m*3 4.04 C 12.9 km/h
780 12-12-2021 16:55:00 6.6 C 6.95 g/m*3 3.79 C 14.5 km/h
781 12-12-2021 17:00:00 6.6 C 6.95 g/m*3 2.82 C 22.5 km/h
782 12-12-2021 17:05:00 6.7 C 6.99 g/m*3 2.94 C 22.5 km/h
783 12-12-2021 17:10:00 6.7 C 6.99 g/m*3 3.92 C 14.5 km/h
784 12-12-2021 17:15:00 6.7 C 6.99 g/m*3 3.69 C 16.1 km/h
785 12-12-2021 17:20:00 6.6 C 6.95 g/m*3 4.04 C 12.9 km/h
786 12-12-2021 17:25:00 6.6 C 7.02 g/m*3 2.99 C 20.9 km/h
787 12-12-2021 17:30:00 6.6 C 7.02 g/m*3 3.57 C 16.1 km/h
788 12-12-2021 17:35:00 6.5 C 6.97 g/m*3 3.67 C 14.5 km/h
789 12-12-2021 17:40:00 6.4 C 7 g/m*3 3.8 C 12.9 km/h
790 12-12-2021 17:45:00 6.4 C 7 g/m*3 3.55 C 14.5 km/h
791 12-12-2021 17:50:00 6.4 C 7 g/m*3 3.55 C 14.5 km/h
792 12-12-2021 17:55:00 6.4 C 7 g/m*3 4.08 C 11.3 km/h
793 12-12-2021 18:00:00 6.4 C 7 g/m*3 3.55 C 14.5 km/h
794 12-12-2021 18:05:00 6.4 C 7 g/m*3 4.08 C 11.3 km/h
795 12-12-2021 18:10:00 6.4 C 7 g/m*3 3.8 C 12.9 km/h
796 12-12-2021 18:15:00 6.4 C 7 g/m*3 3.32 C 16.1 km/h
797 12-12-2021 18:20:00 6.4 C 7 g/m*3 3.8 C 12.9 km/h
798 12-12-2021 18:25:00 6.4 C 7 g/m*3 3.32 C 16.1 km/h
799 12-12-2021 18:30:00 6.4 C 7.08 g/m*3 3.11 C 17.7 km/h
800 12-12-2021 18:35:00 6.4 C 7.08 g/m*3 3.32 C 16.1 km/h
Sensor: Nr:Datum:Temp:Abs-Feuchte:Windchill:Wind:
Aussen-T/F 801 12-12-2021 18:40:00 6.4 C 7.08 g/m*3 4.08 C 11.3 km/h
802 12-12-2021 18:45:00 6.4 C 7.08 g/m*3 3.8 C 12.9 km/h
803 12-12-2021 18:50:00 6.4 C 7.08 g/m*3 3.55 C 14.5 km/h
804 12-12-2021 18:55:00 6.4 C 7.08 g/m*3 3.8 C 12.9 km/h
805 12-12-2021 19:00:00 6.4 C 7.08 g/m*3 4.08 C 11.3 km/h
806 12-12-2021 19:05:00 6.4 C 7.08 g/m*3 3.55 C 14.5 km/h
807 12-12-2021 19:10:00 6.5 C 7.12 g/m*3 4.2 C 11.3 km/h
808 12-12-2021 19:15:00 6.5 C 7.12 g/m*3 3.92 C 12.9 km/h
809 12-12-2021 19:20:00 6.6 C 7.17 g/m*3 4.32 C 11.3 km/h
810 12-12-2021 19:25:00 6.6 C 7.17 g/m*3 3.36 C 17.7 km/h
811 12-12-2021 19:30:00 6.6 C 7.17 g/m*3 4.63 C 9.7 km/h
812 12-12-2021 19:35:00 6.6 C 7.17 g/m*3 5.44 C 6.4 km/h
813 12-12-2021 19:40:00 6.7 C 7.22 g/m*3 5.11 C 8.1 km/h
814 12-12-2021 19:45:00 6.7 C 7.22 g/m*3 5.56 C 6.4 km/h
815 12-12-2021 19:50:00 6.7 C 7.22 g/m*3 4.17 C 12.9 km/h
816 12-12-2021 19:55:00 6.7 C 7.22 g/m*3 4.44 C 11.3 km/h
817 12-12-2021 20:00:00 6.7 C 7.22 g/m*3 3.92 C 14.5 km/h
818 12-12-2021 20:05:00 6.8 C 7.19 g/m*3 5.22 C 8.1 km/h
819 12-12-2021 20:10:00 6.8 C 7.19 g/m*3 4.29 C 12.9 km/h
820 12-12-2021 20:15:00 6.8 C 7.19 g/m*3 4.56 C 11.3 km/h
821 12-12-2021 20:20:00 6.8 C 7.19 g/m*3 4.87 C 9.7 km/h
822 12-12-2021 20:25:00 6.9 C 7.24 g/m*3 4.16 C 14.5 km/h
823 12-12-2021 20:30:00 6.9 C 7.24 g/m*3 4.41 C 12.9 km/h
824 12-12-2021 20:35:00 6.9 C 7.24 g/m*3 4.99 C 9.7 km/h
825 12-12-2021 20:40:00 6.9 C 7.24 g/m*3 4.41 C 12.9 km/h
Sensor: Nr:Datum:Temp:Abs-Feuchte:Windchill:Wind:
Aussen-T/F 826 12-12-2021 20:45:00 7 C 7.28 g/m*3 4.8 C 11.3 km/h
827 12-12-2021 20:50:00 7 C 7.28 g/m*3 4.53 C 12.9 km/h
828 12-12-2021 20:55:00 7 C 7.28 g/m*3 5.11 C 9.7 km/h
829 12-12-2021 21:00:00 7 C 7.28 g/m*3 4.29 C 14.5 km/h
830 12-12-2021 21:05:00 7 C 7.28 g/m*3 4.53 C 12.9 km/h
831 12-12-2021 21:10:00 7.1 C 7.33 g/m*3 4.65 C 12.9 km/h
832 12-12-2021 21:15:00 7.1 C 7.33 g/m*3 5.23 C 9.7 km/h
833 12-12-2021 21:20:00 7.1 C 7.33 g/m*3 5.23 C 9.7 km/h
834 12-12-2021 21:25:00 7.1 C 7.25 g/m*3 5.23 C 9.7 km/h
835 12-12-2021 21:30:00 7.2 C 7.3 g/m*3 5.04 C 11.3 km/h
836 12-12-2021 21:35:00 7.2 C 7.3 g/m*3 5.35 C 9.7 km/h
837 12-12-2021 21:40:00 7.2 C 7.3 g/m*3 5.04 C 11.3 km/h
838 12-12-2021 21:45:00 7.2 C 7.3 g/m*3 4.77 C 12.9 km/h
839 12-12-2021 21:50:00 7.2 C 7.3 g/m*3 4.77 C 12.9 km/h
840 12-12-2021 21:55:00 7.2 C 7.3 g/m*3 4.53 C 14.5 km/h
841 12-12-2021 22:00:00 7.2 C 7.3 g/m*3 5.35 C 9.7 km/h
842 12-12-2021 22:05:00 7.2 C 7.3 g/m*3 4.77 C 12.9 km/h
843 12-12-2021 22:10:00 7.3 C 7.35 g/m*3 4.9 C 12.9 km/h
844 12-12-2021 22:15:00 7.3 C 7.35 g/m*3 4.9 C 12.9 km/h
845 12-12-2021 22:20:00 7.3 C 7.35 g/m*3 4.66 C 14.5 km/h
846 12-12-2021 22:25:00 7.3 C 7.35 g/m*3 4.44 C 16.1 km/h
847 12-12-2021 22:30:00 7.4 C 7.4 g/m*3 5.28 C 11.3 km/h
848 12-12-2021 22:35:00 7.4 C 7.4 g/m*3 5.28 C 11.3 km/h
849 12-12-2021 22:40:00 7.4 C 7.4 g/m*3 5.02 C 12.9 km/h
850 12-12-2021 22:45:00 7.4 C 7.4 g/m*3 5.28 C 11.3 km/h
Sensor: Nr:Datum:Temp:Abs-Feuchte:Windchill:Wind:
Aussen-T/F 851 12-12-2021 22:50:00 7.4 C 7.4 g/m*3 5.93 C 8.1 km/h
852 12-12-2021 22:55:00 7.5 C 7.44 g/m*3 6.48 C 6.4 km/h
853 12-12-2021 23:00:00 7.5 C 7.44 g/m*3 7.5 C 3.2 km/h
854 12-12-2021 23:05:00 7.5 C 7.44 g/m*3 7.5 C 0 km/h
855 12-12-2021 23:10:00 7.4 C 7.4 g/m*3 7.4 C 1.6 km/h
856 12-12-2021 23:15:00 7.4 C 7.4 g/m*3 7.4 C 3.2 km/h
857 12-12-2021 23:20:00 7.4 C 7.4 g/m*3 5.58 C 9.7 km/h
858 12-12-2021 23:25:00 7.4 C 7.4 g/m*3 7.4 C 4.8 km/h
859 12-12-2021 23:30:00 7.4 C 7.4 g/m*3 7.4 C 3.2 km/h
860 12-12-2021 23:35:00 7.4 C 7.4 g/m*3 6.37 C 6.4 km/h
861 12-12-2021 23:40:00 7.4 C 7.4 g/m*3 6.37 C 6.4 km/h
862 12-12-2021 23:45:00 7.4 C 7.4 g/m*3 5.58 C 9.7 km/h
863 12-12-2021 23:50:00 7.4 C 7.4 g/m*3 5.93 C 8.1 km/h
864 12-12-2021 23:55:00 7.4 C 7.4 g/m*3 5.58 C 9.7 km/h
865 13-12-2021 00:00:00 7.5 C 7.44 g/m*3 5.7 C 9.7 km/h
866 13-12-2021 00:05:00 7.6 C 7.49 g/m*3 7.6 C 1.6 km/h
867 13-12-2021 00:10:00 7.6 C 7.49 g/m*3 7.6 C 4.8 km/h
868 13-12-2021 00:15:00 7.6 C 7.49 g/m*3 7.6 C 1.6 km/h
869 13-12-2021 00:20:00 7.5 C 7.44 g/m*3 7.5 C 0 km/h
870 13-12-2021 00:25:00 7.5 C 7.44 g/m*3 7.5 C 0 km/h
871 13-12-2021 00:30:00 7.4 C 7.4 g/m*3 7.4 C 1.6 km/h
872 13-12-2021 00:35:00 7.4 C 7.4 g/m*3 7.4 C 1.6 km/h
873 13-12-2021 00:40:00 7.4 C 7.4 g/m*3 7.4 C 4.8 km/h
874 13-12-2021 00:45:00 7.4 C 7.4 g/m*3 6.37 C 6.4 km/h
875 13-12-2021 00:50:00 7.5 C 7.44 g/m*3 6.48 C 6.4 km/h
Sensor: Nr:Datum:Temp:Abs-Feuchte:Windchill:Wind:
Aussen-T/F 876 13-12-2021 00:55:00 7.5 C 7.44 g/m*3 6.05 C 8.1 km/h
877 13-12-2021 01:00:00 7.6 C 7.49 g/m*3 5.53 C 11.3 km/h
878 13-12-2021 01:05:00 7.6 C 7.49 g/m*3 6.16 C 8.1 km/h
879 13-12-2021 01:10:00 7.7 C 7.54 g/m*3 6.71 C 6.4 km/h
880 13-12-2021 01:15:00 7.7 C 7.54 g/m*3 6.71 C 6.4 km/h
881 13-12-2021 01:20:00 7.7 C 7.54 g/m*3 6.28 C 8.1 km/h
882 13-12-2021 01:25:00 7.7 C 7.54 g/m*3 7.7 C 1.6 km/h
883 13-12-2021 01:30:00 7.7 C 7.54 g/m*3 7.7 C 4.8 km/h
884 13-12-2021 01:35:00 7.7 C 7.54 g/m*3 7.7 C 3.2 km/h
885 13-12-2021 01:40:00 7.7 C 7.54 g/m*3 5.65 C 11.3 km/h
886 13-12-2021 01:45:00 7.7 C 7.54 g/m*3 7.7 C 4.8 km/h
887 13-12-2021 01:50:00 7.7 C 7.54 g/m*3 7.7 C 4.8 km/h
888 13-12-2021 01:55:00 7.7 C 7.54 g/m*3 6.71 C 6.4 km/h
889 13-12-2021 02:00:00 7.6 C 7.49 g/m*3 7.6 C 4.8 km/h
890 13-12-2021 02:05:00 7.6 C 7.49 g/m*3 6.6 C 6.4 km/h
891 13-12-2021 02:10:00 7.6 C 7.49 g/m*3 6.16 C 8.1 km/h
892 13-12-2021 02:15:00 7.6 C 7.49 g/m*3 7.6 C 4.8 km/h
893 13-12-2021 02:20:00 7.6 C 7.49 g/m*3 6.16 C 8.1 km/h
894 13-12-2021 02:25:00 7.6 C 7.49 g/m*3 7.6 C 4.8 km/h
895 13-12-2021 02:30:00 7.6 C 7.49 g/m*3 7.6 C 3.2 km/h
896 13-12-2021 02:35:00 7.6 C 7.49 g/m*3 7.6 C 1.6 km/h
897 13-12-2021 02:40:00 7.6 C 7.49 g/m*3 6.6 C 6.4 km/h
898 13-12-2021 02:45:00 7.6 C 7.49 g/m*3 7.6 C 1.6 km/h
899 13-12-2021 02:50:00 7.5 C 7.44 g/m*3 7.5 C 3.2 km/h
900 13-12-2021 02:55:00 7.4 C 7.4 g/m*3 7.4 C 1.6 km/h
Sensor: Nr:Datum:Temp:Abs-Feuchte:Windchill:Wind:
Aussen-T/F 901 13-12-2021 03:00:00 7.3 C 7.35 g/m*3 7.3 C 1.6 km/h
902 13-12-2021 03:05:00 7.2 C 7.3 g/m*3 7.2 C 3.2 km/h
903 13-12-2021 03:10:00 7.1 C 7.25 g/m*3 7.1 C 0 km/h
904 13-12-2021 03:15:00 6.9 C 7.16 g/m*3 6.9 C 0 km/h
905 13-12-2021 03:20:00 6.8 C 7.11 g/m*3 6.8 C 0 km/h
906 13-12-2021 03:25:00 6.8 C 7.11 g/m*3 6.8 C 0 km/h
907 13-12-2021 03:30:00 6.8 C 7.19 g/m*3 5.67 C 6.4 km/h
908 13-12-2021 03:35:00 7 C 7.28 g/m*3 5.11 C 9.7 km/h
909 13-12-2021 03:40:00 7.2 C 7.38 g/m*3 6.13 C 6.4 km/h
910 13-12-2021 03:45:00 7.3 C 7.43 g/m*3 6.25 C 6.4 km/h
911 13-12-2021 03:50:00 7.3 C 7.43 g/m*3 7.3 C 4.8 km/h
912 13-12-2021 03:55:00 7.3 C 7.43 g/m*3 7.3 C 4.8 km/h
913 13-12-2021 04:00:00 7.4 C 7.48 g/m*3 7.4 C 4.8 km/h
914 13-12-2021 04:05:00 7.4 C 7.48 g/m*3 6.37 C 6.4 km/h
915 13-12-2021 04:10:00 7.4 C 7.48 g/m*3 7.4 C 3.2 km/h
916 13-12-2021 04:15:00 7.4 C 7.48 g/m*3 7.4 C 4.8 km/h
917 13-12-2021 04:20:00 7.4 C 7.48 g/m*3 7.4 C 3.2 km/h
918 13-12-2021 04:25:00 7.3 C 7.43 g/m*3 7.3 C 3.2 km/h
919 13-12-2021 04:30:00 7.3 C 7.43 g/m*3 7.3 C 1.6 km/h
920 13-12-2021 04:35:00 7.3 C 7.43 g/m*3 7.3 C 0 km/h
921 13-12-2021 04:40:00 7.2 C 7.38 g/m*3 5.69 C 8.1 km/h
922 13-12-2021 04:45:00 7.2 C 7.38 g/m*3 6.13 C 6.4 km/h
923 13-12-2021 04:50:00 7.2 C 7.38 g/m*3 5.69 C 8.1 km/h
924 13-12-2021 04:55:00 7.2 C 7.38 g/m*3 7.2 C 4.8 km/h
925 13-12-2021 05:00:00 7.2 C 7.38 g/m*3 6.13 C 6.4 km/h
Sensor: Nr:Datum:Temp:Abs-Feuchte:Windchill:Wind:
Aussen-T/F 926 13-12-2021 05:05:00 7.2 C 7.38 g/m*3 7.2 C 3.2 km/h
927 13-12-2021 05:10:00 7.2 C 7.38 g/m*3 6.13 C 6.4 km/h
928 13-12-2021 05:15:00 7.2 C 7.38 g/m*3 7.2 C 3.2 km/h
929 13-12-2021 05:20:00 7.2 C 7.38 g/m*3 7.2 C 1.6 km/h
930 13-12-2021 05:25:00 7.2 C 7.38 g/m*3 7.2 C 1.6 km/h
931 13-12-2021 05:30:00 7.2 C 7.38 g/m*3 5.69 C 8.1 km/h
932 13-12-2021 05:35:00 7.2 C 7.38 g/m*3 7.2 C 1.6 km/h
933 13-12-2021 05:40:00 7.2 C 7.38 g/m*3 7.2 C 0 km/h
934 13-12-2021 05:45:00 7.2 C 7.38 g/m*3 7.2 C 1.6 km/h
935 13-12-2021 05:50:00 7.2 C 7.38 g/m*3 7.2 C 0 km/h
936 13-12-2021 05:55:00 7.1 C 7.33 g/m*3 7.1 C 0 km/h
937 13-12-2021 06:00:00 7.1 C 7.33 g/m*3 7.1 C 0 km/h
938 13-12-2021 06:05:00 7.1 C 7.33 g/m*3 7.1 C 0 km/h
939 13-12-2021 06:10:00 7.1 C 7.33 g/m*3 7.1 C 0 km/h
940 13-12-2021 06:15:00 7.1 C 7.33 g/m*3 7.1 C 0 km/h
941 13-12-2021 06:20:00 7.1 C 7.33 g/m*3 7.1 C 0 km/h
942 13-12-2021 06:25:00 7.1 C 7.33 g/m*3 7.1 C 0 km/h
943 13-12-2021 06:30:00 7.1 C 7.33 g/m*3 7.1 C 0 km/h
944 13-12-2021 06:35:00 7 C 7.28 g/m*3 7 C 0 km/h
945 13-12-2021 06:40:00 7 C 7.28 g/m*3 7 C 0 km/h
946 13-12-2021 06:45:00 7 C 7.36 g/m*3 7 C 1.6 km/h
947 13-12-2021 06:50:00 7 C 7.36 g/m*3 7 C 0 km/h
948 13-12-2021 06:55:00 7.1 C 7.41 g/m*3 7.1 C 3.2 km/h
949 13-12-2021 07:00:00 7.1 C 7.41 g/m*3 7.1 C 0 km/h
950 13-12-2021 07:05:00 7.1 C 7.41 g/m*3 7.1 C 0 km/h
Sensor: Nr:Datum:Temp:Abs-Feuchte:Windchill:Wind:
Aussen-T/F 951 13-12-2021 07:10:00 7.1 C 7.41 g/m*3 7.1 C 0 km/h
952 13-12-2021 07:15:00 7.1 C 7.41 g/m*3 7.1 C 0 km/h
953 13-12-2021 07:20:00 7.1 C 7.41 g/m*3 7.1 C 0 km/h
954 13-12-2021 07:25:00 7.1 C 7.41 g/m*3 7.1 C 0 km/h
955 13-12-2021 07:30:00 7.1 C 7.41 g/m*3 7.1 C 4.8 km/h
956 13-12-2021 07:35:00 7.1 C 7.41 g/m*3 7.1 C 3.2 km/h
957 13-12-2021 07:40:00 7.1 C 7.41 g/m*3 6.02 C 6.4 km/h
958 13-12-2021 07:45:00 7.1 C 7.41 g/m*3 7.1 C 3.2 km/h
959 13-12-2021 07:50:00 7.1 C 7.41 g/m*3 7.1 C 1.6 km/h
960 13-12-2021 07:55:00 7.2 C 7.46 g/m*3 7.2 C 4.8 km/h
961 13-12-2021 08:00:00 7.2 C 7.46 g/m*3 7.2 C 4.8 km/h
962 13-12-2021 08:05:00 7.2 C 7.46 g/m*3 7.2 C 4.8 km/h
963 13-12-2021 08:10:00 7.2 C 7.46 g/m*3 6.13 C 6.4 km/h
964 13-12-2021 08:15:00 7.2 C 7.46 g/m*3 7.2 C 3.2 km/h
965 13-12-2021 08:20:00 7.2 C 7.46 g/m*3 7.2 C 1.6 km/h
966 13-12-2021 08:25:00 7.2 C 7.46 g/m*3 7.2 C 1.6 km/h
967 13-12-2021 08:30:00 7.2 C 7.46 g/m*3 7.2 C 0 km/h
968 13-12-2021 08:35:00 7.2 C 7.46 g/m*3 7.2 C 1.6 km/h
969 13-12-2021 08:40:00 7.2 C 7.46 g/m*3 7.2 C 1.6 km/h
970 13-12-2021 08:45:00 7.2 C 7.46 g/m*3 7.2 C 3.2 km/h
971 13-12-2021 08:50:00 7.2 C 7.46 g/m*3 7.2 C 0 km/h
972 13-12-2021 08:55:00 7.2 C 7.46 g/m*3 7.2 C 1.6 km/h
973 13-12-2021 09:00:00 7.2 C 7.46 g/m*3 7.2 C 0 km/h
974 13-12-2021 09:05:00 7.2 C 7.46 g/m*3 7.2 C 0 km/h
975 13-12-2021 09:10:00 7.3 C 7.51 g/m*3 7.3 C 0 km/h
Sensor: Nr:Datum:Temp:Abs-Feuchte:Windchill:Wind:
Aussen-T/F 976 13-12-2021 09:15:00 7.3 C 7.51 g/m*3 7.3 C 0 km/h
977 13-12-2021 09:20:00 7.3 C 7.51 g/m*3 7.3 C 1.6 km/h
978 13-12-2021 09:25:00 7.3 C 7.51 g/m*3 7.3 C 0 km/h
979 13-12-2021 09:30:00 7.4 C 7.55 g/m*3 7.4 C 1.6 km/h
980 13-12-2021 09:35:00 7.4 C 7.55 g/m*3 7.4 C 1.6 km/h
981 13-12-2021 09:40:00 7.5 C 7.6 g/m*3 7.5 C 1.6 km/h
982 13-12-2021 09:45:00 7.6 C 7.65 g/m*3 7.6 C 1.6 km/h
983 13-12-2021 09:50:00 7.6 C 7.65 g/m*3 7.6 C 0 km/h
984 13-12-2021 09:55:00 7.7 C 7.7 g/m*3 7.7 C 0 km/h
985 13-12-2021 10:00:00 7.7 C 7.7 g/m*3 6.28 C 8.1 km/h
986 13-12-2021 10:05:00 7.8 C 7.67 g/m*3 6.4 C 8.1 km/h
987 13-12-2021 10:10:00 7.8 C 7.67 g/m*3 6.83 C 6.4 km/h
988 13-12-2021 10:15:00 7.9 C 7.72 g/m*3 7.9 C 1.6 km/h
989 13-12-2021 10:20:00 7.9 C 7.72 g/m*3 7.9 C 0 km/h
990 13-12-2021 10:25:00 8 C 7.77 g/m*3 8 C 3.2 km/h
991 13-12-2021 10:30:00 8.1 C 7.82 g/m*3 8.1 C 3.2 km/h
992 13-12-2021 10:35:00 8.2 C 7.87 g/m*3 8.2 C 0 km/h
993 13-12-2021 10:40:00 8.2 C 7.79 g/m*3 8.2 C 4.8 km/h
994 13-12-2021 10:45:00 8.3 C 7.84 g/m*3 8.3 C 0 km/h
995 13-12-2021 10:50:00 8.4 C 7.97 g/m*3 8.4 C 4.8 km/h
996 13-12-2021 10:55:00 8.5 C 7.94 g/m*3 7.64 C 6.4 km/h
997 13-12-2021 11:00:00 8.5 C 7.94 g/m*3 6.9 C 9.7 km/h
998 13-12-2021 11:05:00 8.6 C 7.99 g/m*3 7.34 C 8.1 km/h
999 13-12-2021 11:10:00 8.6 C 7.91 g/m*3 7.01 C 9.7 km/h
1000 13-12-2021 11:15:00 8.6 C 7.91 g/m*3 7.01 C 9.7 km/h
Sensor: Nr:Datum:Temp:Abs-Feuchte:Windchill:Wind:
Aussen-T/F 1001 13-12-2021 11:20:00 8.6 C 7.91 g/m*3 7.34 C 8.1 km/h
1002 13-12-2021 11:25:00 8.6 C 7.91 g/m*3 6.48 C 12.9 km/h
1003 13-12-2021 11:30:00 8.6 C 7.91 g/m*3 6.73 C 11.3 km/h
1004 13-12-2021 11:35:00 8.6 C 7.91 g/m*3 7.01 C 9.7 km/h
1005 13-12-2021 11:40:00 8.6 C 7.91 g/m*3 6.73 C 11.3 km/h
1006 13-12-2021 11:45:00 8.6 C 7.91 g/m*3 7.01 C 9.7 km/h
1007 13-12-2021 11:50:00 8.7 C 7.96 g/m*3 7.87 C 6.4 km/h
1008 13-12-2021 11:55:00 8.7 C 7.96 g/m*3 7.46 C 8.1 km/h
1009 13-12-2021 12:00:00 8.8 C 8.01 g/m*3 7.58 C 8.1 km/h
1010 13-12-2021 12:05:00 8.8 C 8.01 g/m*3 7.98 C 6.4 km/h
1011 13-12-2021 12:10:00 8.9 C 8.06 g/m*3 8.1 C 6.4 km/h
1012 13-12-2021 12:15:00 8.9 C 8.06 g/m*3 7.69 C 8.1 km/h
1013 13-12-2021 12:20:00 9 C 8.11 g/m*3 7.81 C 8.1 km/h
1014 13-12-2021 12:25:00 9 C 8.11 g/m*3 7.49 C 9.7 km/h
1015 13-12-2021 12:30:00 9.1 C 8.16 g/m*3 7.93 C 8.1 km/h
1016 13-12-2021 12:35:00 9.1 C 8.07 g/m*3 7.61 C 9.7 km/h
1017 13-12-2021 12:40:00 9.1 C 8.07 g/m*3 7.93 C 8.1 km/h
1018 13-12-2021 12:45:00 9.1 C 8.07 g/m*3 7.93 C 8.1 km/h
1019 13-12-2021 12:50:00 9.2 C 8.13 g/m*3 8.45 C 6.4 km/h
1020 13-12-2021 12:55:00 9.2 C 8.13 g/m*3 8.45 C 6.4 km/h
1021 13-12-2021 13:00:00 9.2 C 8.13 g/m*3 7.73 C 9.7 km/h
1022 13-12-2021 13:05:00 9.3 C 8.18 g/m*3 8.16 C 8.1 km/h
1023 13-12-2021 13:10:00 9.3 C 8.18 g/m*3 8.16 C 8.1 km/h
1024 13-12-2021 13:15:00 9.3 C 8.18 g/m*3 8.16 C 8.1 km/h
1025 13-12-2021 13:20:00 9.3 C 8.18 g/m*3 8.16 C 8.1 km/h
Sensor: Nr:Datum:Temp:Abs-Feuchte:Windchill:Wind:
Aussen-T/F 1026 13-12-2021 13:25:00 9.3 C 8.18 g/m*3 8.16 C 8.1 km/h
1027 13-12-2021 13:30:00 9.4 C 8.23 g/m*3 8.68 C 6.4 km/h
1028 13-12-2021 13:35:00 9.4 C 8.23 g/m*3 7.97 C 9.7 km/h
1029 13-12-2021 13:40:00 9.4 C 8.23 g/m*3 8.68 C 6.4 km/h
1030 13-12-2021 13:45:00 9.4 C 8.23 g/m*3 8.28 C 8.1 km/h
1031 13-12-2021 13:50:00 9.4 C 8.23 g/m*3 8.68 C 6.4 km/h
1032 13-12-2021 13:55:00 9.5 C 8.28 g/m*3 8.79 C 6.4 km/h
1033 13-12-2021 14:00:00 9.6 C 8.34 g/m*3 8.91 C 6.4 km/h
1034 13-12-2021 14:05:00 9.6 C 8.34 g/m*3 9.6 C 4.8 km/h
1035 13-12-2021 14:10:00 9.5 C 8.28 g/m*3 9.5 C 1.6 km/h
1036 13-12-2021 14:15:00 9.6 C 8.34 g/m*3 8.52 C 8.1 km/h
1037 13-12-2021 14:20:00 9.6 C 8.34 g/m*3 8.91 C 6.4 km/h
1038 13-12-2021 14:25:00 9.5 C 8.28 g/m*3 9.5 C 4.8 km/h
1039 13-12-2021 14:30:00 9.5 C 8.19 g/m*3 9.5 C 4.8 km/h
1040 13-12-2021 14:35:00 9.5 C 8.19 g/m*3 9.5 C 4.8 km/h
1041 13-12-2021 14:40:00 9.5 C 8.19 g/m*3 9.5 C 0 km/h
1042 13-12-2021 14:45:00 9.5 C 8.19 g/m*3 9.5 C 0 km/h
1043 13-12-2021 14:50:00 9.4 C 8.23 g/m*3 9.4 C 0 km/h
1044 13-12-2021 14:55:00 9.4 C 8.23 g/m*3 9.4 C 0 km/h
1045 13-12-2021 15:00:00 9.4 C 8.14 g/m*3 9.4 C 0 km/h
1046 13-12-2021 15:05:00 9.4 C 8.23 g/m*3 9.4 C 4.8 km/h
1047 13-12-2021 15:10:00 9.4 C 8.14 g/m*3 9.4 C 4.8 km/h
1048 13-12-2021 15:15:00 9.4 C 8.14 g/m*3 9.4 C 3.2 km/h
1049 13-12-2021 15:20:00 9.3 C 8.18 g/m*3 9.3 C 0 km/h
1050 13-12-2021 15:25:00 9.3 C 8.18 g/m*3 9.3 C 1.6 km/h
Sensor: Nr:Datum:Temp:Abs-Feuchte:Windchill:Wind:
Aussen-T/F 1051 13-12-2021 15:30:00 9.3 C 8.18 g/m*3 9.3 C 0 km/h
1052 13-12-2021 15:35:00 9.3 C 8.18 g/m*3 9.3 C 4.8 km/h
1053 13-12-2021 15:40:00 9.3 C 8.18 g/m*3 9.3 C 1.6 km/h
1054 13-12-2021 15:45:00 9.2 C 8.13 g/m*3 9.2 C 1.6 km/h
1055 13-12-2021 15:50:00 9.2 C 8.13 g/m*3 9.2 C 1.6 km/h
1056 13-12-2021 15:55:00 9.2 C 8.13 g/m*3 9.2 C 3.2 km/h
1057 13-12-2021 16:00:00 9.2 C 8.13 g/m*3 9.2 C 1.6 km/h
1058 13-12-2021 16:05:00 9.2 C 8.13 g/m*3 9.2 C 0 km/h
1059 13-12-2021 16:10:00 9.1 C 8.07 g/m*3 9.1 C 0 km/h
1060 13-12-2021 16:15:00 9.1 C 8.07 g/m*3 9.1 C 0 km/h
1061 13-12-2021 16:20:00 9.1 C 8.16 g/m*3 9.1 C 0 km/h
1062 13-12-2021 16:25:00 9 C 8.11 g/m*3 9 C 0 km/h
1063 13-12-2021 16:30:00 8.9 C 8.06 g/m*3 8.9 C 0 km/h
1064 13-12-2021 16:35:00 8.9 C 8.06 g/m*3 8.9 C 0 km/h
1065 13-12-2021 16:40:00 8.8 C 8.01 g/m*3 8.8 C 0 km/h
1066 13-12-2021 16:45:00 8.8 C 8.01 g/m*3 8.8 C 0 km/h
1067 13-12-2021 16:50:00 8.8 C 8.01 g/m*3 8.8 C 0 km/h
1068 13-12-2021 16:55:00 8.7 C 7.96 g/m*3 8.7 C 0 km/h
1069 13-12-2021 17:00:00 8.7 C 7.96 g/m*3 8.7 C 0 km/h
1070 13-12-2021 17:05:00 8.7 C 7.96 g/m*3 8.7 C 0 km/h
1071 13-12-2021 17:10:00 8.6 C 7.91 g/m*3 8.6 C 0 km/h
1072 13-12-2021 17:15:00 8.6 C 7.91 g/m*3 8.6 C 0 km/h
1073 13-12-2021 17:20:00 8.5 C 7.94 g/m*3 8.5 C 0 km/h
1074 13-12-2021 17:25:00 8.5 C 7.94 g/m*3 8.5 C 0 km/h
1075 13-12-2021 17:30:00 8.4 C 7.89 g/m*3 8.4 C 0 km/h
Sensor: Nr:Datum:Temp:Abs-Feuchte:Windchill:Wind:
Aussen-T/F 1076 13-12-2021 17:35:00 8.4 C 7.89 g/m*3 8.4 C 0 km/h
1077 13-12-2021 17:40:00 8.4 C 7.89 g/m*3 8.4 C 0 km/h
1078 13-12-2021 17:45:00 8.4 C 7.89 g/m*3 8.4 C 0 km/h
1079 13-12-2021 17:50:00 8.3 C 7.84 g/m*3 8.3 C 0 km/h
1080 13-12-2021 17:55:00 8.3 C 7.84 g/m*3 8.3 C 0 km/h
1081 13-12-2021 18:00:00 8.3 C 7.84 g/m*3 8.3 C 0 km/h
1082 13-12-2021 18:05:00 8.3 C 7.84 g/m*3 8.3 C 0 km/h
1083 13-12-2021 18:10:00 8.3 C 7.92 g/m*3 8.3 C 0 km/h
1084 13-12-2021 18:15:00 8.2 C 7.79 g/m*3 8.2 C 0 km/h
1085 13-12-2021 18:20:00 8.2 C 7.79 g/m*3 8.2 C 0 km/h
1086 13-12-2021 18:25:00 8.2 C 7.79 g/m*3 8.2 C 0 km/h
1087 13-12-2021 18:30:00 8.2 C 7.87 g/m*3 8.2 C 0 km/h
1088 13-12-2021 18:35:00 8.2 C 7.87 g/m*3 8.2 C 3.2 km/h
1089 13-12-2021 18:40:00 8.2 C 7.87 g/m*3 8.2 C 4.8 km/h
1090 13-12-2021 18:45:00 8.2 C 7.87 g/m*3 7.29 C 6.4 km/h
1091 13-12-2021 18:50:00 8.2 C 7.87 g/m*3 6.87 C 8.1 km/h
1092 13-12-2021 18:55:00 8.3 C 7.92 g/m*3 7.41 C 6.4 km/h
1093 13-12-2021 19:00:00 8.3 C 7.92 g/m*3 8.3 C 0 km/h
1094 13-12-2021 19:05:00 8.2 C 7.87 g/m*3 8.2 C 1.6 km/h
1095 13-12-2021 19:10:00 8.2 C 7.87 g/m*3 8.2 C 1.6 km/h
1096 13-12-2021 19:15:00 8.2 C 7.87 g/m*3 8.2 C 3.2 km/h
1097 13-12-2021 19:20:00 8.2 C 7.87 g/m*3 8.2 C 1.6 km/h
1098 13-12-2021 19:25:00 8.2 C 7.87 g/m*3 8.2 C 0 km/h
1099 13-12-2021 19:30:00 8.1 C 7.82 g/m*3 8.1 C 0 km/h
1100 13-12-2021 19:35:00 8.1 C 7.82 g/m*3 8.1 C 0 km/h
Sensor: Nr:Datum:Temp:Abs-Feuchte:Windchill:Wind:
Aussen-T/F 1101 13-12-2021 19:40:00 8.1 C 7.82 g/m*3 8.1 C 0 km/h
1102 13-12-2021 19:45:00 8.1 C 7.82 g/m*3 8.1 C 0 km/h
1103 13-12-2021 19:50:00 8 C 7.77 g/m*3 8 C 0 km/h
1104 13-12-2021 19:55:00 7.9 C 7.72 g/m*3 7.9 C 0 km/h
1105 13-12-2021 20:00:00 7.9 C 7.72 g/m*3 7.9 C 0 km/h
1106 13-12-2021 20:05:00 7.9 C 7.72 g/m*3 7.9 C 0 km/h
1107 13-12-2021 20:10:00 7.9 C 7.72 g/m*3 7.9 C 0 km/h
1108 13-12-2021 20:15:00 7.8 C 7.75 g/m*3 7.8 C 0 km/h
1109 13-12-2021 20:20:00 7.8 C 7.67 g/m*3 7.8 C 0 km/h
1110 13-12-2021 20:25:00 7.8 C 7.67 g/m*3 7.8 C 0 km/h
1111 13-12-2021 20:30:00 7.7 C 7.62 g/m*3 7.7 C 0 km/h
1112 13-12-2021 20:35:00 7.7 C 7.62 g/m*3 7.7 C 0 km/h
1113 13-12-2021 20:40:00 7.7 C 7.7 g/m*3 7.7 C 0 km/h
1114 13-12-2021 20:45:00 7.7 C 7.7 g/m*3 7.7 C 0 km/h
1115 13-12-2021 20:50:00 7.6 C 7.65 g/m*3 7.6 C 0 km/h
1116 13-12-2021 20:55:00 7.6 C 7.65 g/m*3 7.6 C 0 km/h
1117 13-12-2021 21:00:00 7.6 C 7.65 g/m*3 7.6 C 0 km/h
1118 13-12-2021 21:05:00 7.6 C 7.65 g/m*3 7.6 C 0 km/h
1119 13-12-2021 21:10:00 7.5 C 7.6 g/m*3 7.5 C 0 km/h
1120 13-12-2021 21:15:00 7.5 C 7.6 g/m*3 7.5 C 0 km/h
1121 13-12-2021 21:20:00 7.5 C 7.6 g/m*3 7.5 C 0 km/h
1122 13-12-2021 21:25:00 7.4 C 7.55 g/m*3 7.4 C 0 km/h
1123 13-12-2021 21:30:00 7.4 C 7.55 g/m*3 7.4 C 0 km/h
1124 13-12-2021 21:35:00 7.4 C 7.55 g/m*3 7.4 C 0 km/h
1125 13-12-2021 21:40:00 7.4 C 7.55 g/m*3 7.4 C 0 km/h
Sensor: Nr:Datum:Temp:Abs-Feuchte:Windchill:Wind:
Aussen-T/F 1126 13-12-2021 21:45:00 7.4 C 7.55 g/m*3 7.4 C 0 km/h
1127 13-12-2021 21:50:00 7.4 C 7.55 g/m*3 7.4 C 0 km/h
1128 13-12-2021 21:55:00 7.3 C 7.51 g/m*3 7.3 C 0 km/h
1129 13-12-2021 22:00:00 7.3 C 7.51 g/m*3 7.3 C 0 km/h
1130 13-12-2021 22:05:00 7.2 C 7.46 g/m*3 7.2 C 0 km/h
1131 13-12-2021 22:10:00 7.2 C 7.46 g/m*3 7.2 C 0 km/h
1132 13-12-2021 22:15:00 7.2 C 7.46 g/m*3 7.2 C 0 km/h
1133 13-12-2021 22:20:00 7.2 C 7.46 g/m*3 7.2 C 0 km/h
1134 13-12-2021 22:25:00 7.2 C 7.46 g/m*3 7.2 C 0 km/h
1135 13-12-2021 22:30:00 7.2 C 7.46 g/m*3 7.2 C 0 km/h
1136 13-12-2021 22:35:00 7.2 C 7.46 g/m*3 7.2 C 0 km/h
1137 13-12-2021 22:40:00 7.2 C 7.46 g/m*3 7.2 C 0 km/h
1138 13-12-2021 22:45:00 7.2 C 7.46 g/m*3 7.2 C 0 km/h
1139 13-12-2021 22:50:00 7.2 C 7.46 g/m*3 7.2 C 0 km/h
1140 13-12-2021 22:55:00 7.2 C 7.54 g/m*3 7.2 C 0 km/h
1141 13-12-2021 23:00:00 7.2 C 7.54 g/m*3 7.2 C 0 km/h
1142 13-12-2021 23:05:00 7.2 C 7.54 g/m*3 7.2 C 0 km/h
1143 13-12-2021 23:10:00 7.2 C 7.54 g/m*3 7.2 C 0 km/h
1144 13-12-2021 23:15:00 7.2 C 7.54 g/m*3 7.2 C 0 km/h
1145 13-12-2021 23:20:00 7.2 C 7.54 g/m*3 7.2 C 0 km/h
1146 13-12-2021 23:25:00 7.2 C 7.54 g/m*3 7.2 C 0 km/h
1147 13-12-2021 23:30:00 7.2 C 7.54 g/m*3 7.2 C 0 km/h
1148 13-12-2021 23:35:00 7.2 C 7.54 g/m*3 7.2 C 0 km/h
1149 13-12-2021 23:40:00 7.2 C 7.54 g/m*3 7.2 C 0 km/h
1150 13-12-2021 23:45:00 7.2 C 7.54 g/m*3 7.2 C 0 km/h
Sensor: Nr:Datum:Temp:Abs-Feuchte:Windchill:Wind:
Aussen-T/F 1151 13-12-2021 23:50:00 7.2 C 7.54 g/m*3 7.2 C 0 km/h
1152 13-12-2021 23:55:00 7.2 C 7.54 g/m*3 7.2 C 0 km/h
1153 14-12-2021 00:00:00 7.2 C 7.54 g/m*3 7.2 C 0 km/h
1154 14-12-2021 00:05:00 7.2 C 7.54 g/m*3 7.2 C 0 km/h
1155 14-12-2021 00:10:00 7.2 C 7.54 g/m*3 7.2 C 0 km/h
1156 14-12-2021 00:15:00 7.2 C 7.54 g/m*3 7.2 C 0 km/h
1157 14-12-2021 00:20:00 7.2 C 7.54 g/m*3 7.2 C 0 km/h
1158 14-12-2021 00:25:00 7.2 C 7.54 g/m*3 7.2 C 0 km/h
1159 14-12-2021 00:30:00 7.2 C 7.54 g/m*3 7.2 C 0 km/h
1160 14-12-2021 00:35:00 7.2 C 7.54 g/m*3 7.2 C 1.6 km/h
1161 14-12-2021 00:40:00 7.2 C 7.54 g/m*3 7.2 C 0 km/h
1162 14-12-2021 00:45:00 7.2 C 7.54 g/m*3 7.2 C 0 km/h
1163 14-12-2021 00:50:00 7.2 C 7.54 g/m*3 7.2 C 0 km/h
1164 14-12-2021 00:55:00 7.2 C 7.54 g/m*3 7.2 C 0 km/h
1165 14-12-2021 01:00:00 7.2 C 7.54 g/m*3 7.2 C 0 km/h
1166 14-12-2021 01:05:00 7.2 C 7.54 g/m*3 7.2 C 0 km/h
1167 14-12-2021 01:10:00 7.2 C 7.54 g/m*3 7.2 C 0 km/h
1168 14-12-2021 01:15:00 7.2 C 7.54 g/m*3 7.2 C 0 km/h
1169 14-12-2021 01:20:00 7.2 C 7.54 g/m*3 7.2 C 0 km/h
1170 14-12-2021 01:25:00 7.2 C 7.54 g/m*3 7.2 C 0 km/h
1171 14-12-2021 01:30:00 7.2 C 7.54 g/m*3 7.2 C 0 km/h
1172 14-12-2021 01:35:00 7.2 C 7.54 g/m*3 7.2 C 0 km/h
1173 14-12-2021 01:40:00 7.2 C 7.54 g/m*3 7.2 C 0 km/h
1174 14-12-2021 01:45:00 7.2 C 7.54 g/m*3 7.2 C 0 km/h
1175 14-12-2021 01:50:00 7.2 C 7.54 g/m*3 7.2 C 0 km/h
Sensor: Nr:Datum:Temp:Abs-Feuchte:Windchill:Wind:
Aussen-T/F 1176 14-12-2021 01:55:00 7.2 C 7.54 g/m*3 7.2 C 0 km/h
1177 14-12-2021 02:00:00 7.2 C 7.54 g/m*3 7.2 C 0 km/h
1178 14-12-2021 02:05:00 7.2 C 7.54 g/m*3 7.2 C 1.6 km/h
1179 14-12-2021 02:10:00 7.2 C 7.54 g/m*3 7.2 C 0 km/h
1180 14-12-2021 02:15:00 7.2 C 7.54 g/m*3 7.2 C 0 km/h
1181 14-12-2021 02:20:00 7.2 C 7.54 g/m*3 7.2 C 0 km/h
1182 14-12-2021 02:25:00 7.2 C 7.54 g/m*3 7.2 C 1.6 km/h
1183 14-12-2021 02:30:00 7.2 C 7.54 g/m*3 7.2 C 0 km/h
1184 14-12-2021 02:35:00 7.2 C 7.54 g/m*3 7.2 C 0 km/h
1185 14-12-2021 02:40:00 7.2 C 7.54 g/m*3 7.2 C 0 km/h
1186 14-12-2021 02:45:00 7.2 C 7.54 g/m*3 7.2 C 1.6 km/h
1187 14-12-2021 02:50:00 7.2 C 7.54 g/m*3 7.2 C 0 km/h
1188 14-12-2021 02:55:00 7.2 C 7.54 g/m*3 7.2 C 0 km/h
1189 14-12-2021 03:00:00 7.2 C 7.54 g/m*3 7.2 C 0 km/h
1190 14-12-2021 03:05:00 7.2 C 7.54 g/m*3 7.2 C 0 km/h
1191 14-12-2021 03:10:00 7.2 C 7.54 g/m*3 7.2 C 0 km/h
1192 14-12-2021 03:15:00 7.2 C 7.54 g/m*3 7.2 C 0 km/h
1193 14-12-2021 03:20:00 7.2 C 7.54 g/m*3 7.2 C 0 km/h
1194 14-12-2021 03:25:00 7.2 C 7.54 g/m*3 7.2 C 0 km/h
1195 14-12-2021 03:30:00 7.2 C 7.54 g/m*3 7.2 C 0 km/h
1196 14-12-2021 03:35:00 7.2 C 7.54 g/m*3 7.2 C 0 km/h
1197 14-12-2021 03:40:00 7.2 C 7.54 g/m*3 7.2 C 1.6 km/h
1198 14-12-2021 03:45:00 7.2 C 7.54 g/m*3 7.2 C 0 km/h
1199 14-12-2021 03:50:00 7.2 C 7.54 g/m*3 7.2 C 0 km/h
1200 14-12-2021 03:55:00 7.2 C 7.54 g/m*3 7.2 C 0 km/h
Sensor: Nr:Datum:Temp:Abs-Feuchte:Windchill:Wind:
Aussen-T/F 1201 14-12-2021 04:00:00 7.2 C 7.54 g/m*3 7.2 C 0 km/h
1202 14-12-2021 04:05:00 7.2 C 7.54 g/m*3 7.2 C 0 km/h
1203 14-12-2021 04:10:00 7.2 C 7.54 g/m*3 7.2 C 0 km/h
1204 14-12-2021 04:15:00 7.2 C 7.54 g/m*3 7.2 C 0 km/h
1205 14-12-2021 04:20:00 7.2 C 7.54 g/m*3 7.2 C 0 km/h
1206 14-12-2021 04:25:00 7.2 C 7.54 g/m*3 7.2 C 0 km/h
1207 14-12-2021 04:30:00 7.1 C 7.49 g/m*3 7.1 C 0 km/h
1208 14-12-2021 04:35:00 7.1 C 7.49 g/m*3 7.1 C 0 km/h
1209 14-12-2021 04:40:00 7.2 C 7.54 g/m*3 7.2 C 1.6 km/h
1210 14-12-2021 04:45:00 7.2 C 7.54 g/m*3 7.2 C 4.8 km/h
1211 14-12-2021 04:50:00 7.2 C 7.54 g/m*3 7.2 C 4.8 km/h
1212 14-12-2021 04:55:00 7.2 C 7.54 g/m*3 7.2 C 0 km/h
1213 14-12-2021 05:00:00 7.2 C 7.54 g/m*3 7.2 C 0 km/h
1214 14-12-2021 05:05:00 7.2 C 7.54 g/m*3 7.2 C 0 km/h
1215 14-12-2021 05:10:00 7.2 C 7.54 g/m*3 7.2 C 0 km/h
1216 14-12-2021 05:15:00 7.2 C 7.54 g/m*3 7.2 C 0 km/h
1217 14-12-2021 05:20:00 7.2 C 7.54 g/m*3 7.2 C 0 km/h
1218 14-12-2021 05:25:00 7.2 C 7.54 g/m*3 7.2 C 0 km/h
1219 14-12-2021 05:30:00 7.2 C 7.54 g/m*3 7.2 C 0 km/h
1220 14-12-2021 05:35:00 7.2 C 7.54 g/m*3 7.2 C 0 km/h
1221 14-12-2021 05:40:00 7.2 C 7.54 g/m*3 7.2 C 0 km/h
1222 14-12-2021 05:45:00 7.2 C 7.54 g/m*3 7.2 C 1.6 km/h
1223 14-12-2021 05:50:00 7.2 C 7.54 g/m*3 7.2 C 1.6 km/h
1224 14-12-2021 05:55:00 7.2 C 7.54 g/m*3 7.2 C 0 km/h
1225 14-12-2021 06:00:00 7.2 C 7.54 g/m*3 7.2 C 0 km/h
Sensor: Nr:Datum:Temp:Abs-Feuchte:Windchill:Wind:
Aussen-T/F 1226 14-12-2021 06:05:00 7.2 C 7.54 g/m*3 7.2 C 0 km/h
1227 14-12-2021 06:10:00 7.2 C 7.54 g/m*3 7.2 C 0 km/h
1228 14-12-2021 06:15:00 7.2 C 7.54 g/m*3 7.2 C 0 km/h
1229 14-12-2021 06:20:00 7.2 C 7.54 g/m*3 7.2 C 0 km/h
1230 14-12-2021 06:25:00 7.2 C 7.54 g/m*3 7.2 C 0 km/h
1231 14-12-2021 06:30:00 7.2 C 7.54 g/m*3 7.2 C 0 km/h
1232 14-12-2021 06:35:00 7.2 C 7.54 g/m*3 7.2 C 0 km/h
1233 14-12-2021 06:40:00 7.2 C 7.54 g/m*3 7.2 C 0 km/h
1234 14-12-2021 06:45:00 7.2 C 7.54 g/m*3 7.2 C 0 km/h
1235 14-12-2021 06:50:00 7.2 C 7.54 g/m*3 7.2 C 0 km/h
1236 14-12-2021 06:55:00 7.2 C 7.54 g/m*3 7.2 C 0 km/h
1237 14-12-2021 07:00:00 7.2 C 7.54 g/m*3 7.2 C 0 km/h
1238 14-12-2021 07:05:00 7.2 C 7.54 g/m*3 7.2 C 0 km/h
1239 14-12-2021 07:10:00 7.2 C 7.54 g/m*3 7.2 C 0 km/h
1240 14-12-2021 07:15:00 7.2 C 7.54 g/m*3 7.2 C 3.2 km/h
1241 14-12-2021 07:20:00 7.2 C 7.54 g/m*3 7.2 C 0 km/h
1242 14-12-2021 07:25:00 7.2 C 7.54 g/m*3 7.2 C 3.2 km/h
1243 14-12-2021 07:30:00 7.3 C 7.58 g/m*3 7.3 C 4.8 km/h
1244 14-12-2021 07:35:00 7.3 C 7.58 g/m*3 7.3 C 3.2 km/h
1245 14-12-2021 07:40:00 7.3 C 7.58 g/m*3 7.3 C 4.8 km/h
1246 14-12-2021 07:45:00 7.3 C 7.58 g/m*3 7.3 C 3.2 km/h
1247 14-12-2021 07:50:00 7.3 C 7.58 g/m*3 7.3 C 4.8 km/h
1248 14-12-2021 07:55:00 7.4 C 7.63 g/m*3 6.37 C 6.4 km/h
1249 14-12-2021 08:00:00 7.4 C 7.63 g/m*3 7.4 C 1.6 km/h
1250 14-12-2021 08:05:00 7.4 C 7.63 g/m*3 7.4 C 4.8 km/h
Sensor: Nr:Datum:Temp:Abs-Feuchte:Windchill:Wind:
Aussen-T/F 1251 14-12-2021 08:10:00 7.4 C 7.63 g/m*3 7.4 C 1.6 km/h
1252 14-12-2021 08:15:00 7.4 C 7.63 g/m*3 7.4 C 4.8 km/h
1253 14-12-2021 08:20:00 7.4 C 7.63 g/m*3 7.4 C 3.2 km/h
1254 14-12-2021 08:25:00 7.4 C 7.63 g/m*3 7.4 C 3.2 km/h
1255 14-12-2021 08:30:00 7.4 C 7.63 g/m*3 7.4 C 1.6 km/h
1256 14-12-2021 08:35:00 7.4 C 7.63 g/m*3 7.4 C 3.2 km/h
1257 14-12-2021 08:40:00 7.4 C 7.63 g/m*3 7.4 C 4.8 km/h
1258 14-12-2021 08:45:00 7.4 C 7.63 g/m*3 7.4 C 3.2 km/h
1259 14-12-2021 08:50:00 7.4 C 7.63 g/m*3 7.4 C 3.2 km/h
1260 14-12-2021 08:55:00 7.4 C 7.63 g/m*3 7.4 C 3.2 km/h
1261 14-12-2021 09:00:00 7.4 C 7.63 g/m*3 7.4 C 3.2 km/h
1262 14-12-2021 09:05:00 7.5 C 7.6 g/m*3 7.5 C 3.2 km/h
1263 14-12-2021 09:10:00 7.5 C 7.6 g/m*3 7.5 C 4.8 km/h
1264 14-12-2021 09:15:00 7.5 C 7.6 g/m*3 6.48 C 6.4 km/h
1265 14-12-2021 09:20:00 7.6 C 7.65 g/m*3 7.6 C 3.2 km/h
1266 14-12-2021 09:25:00 7.6 C 7.65 g/m*3 7.6 C 4.8 km/h
1267 14-12-2021 09:30:00 7.6 C 7.65 g/m*3 7.6 C 4.8 km/h
1268 14-12-2021 09:35:00 7.7 C 7.7 g/m*3 6.71 C 6.4 km/h
1269 14-12-2021 09:40:00 7.7 C 7.7 g/m*3 6.71 C 6.4 km/h
1270 14-12-2021 09:45:00 7.7 C 7.7 g/m*3 6.71 C 6.4 km/h
1271 14-12-2021 09:50:00 7.7 C 7.7 g/m*3 7.7 C 4.8 km/h
1272 14-12-2021 09:55:00 7.8 C 7.67 g/m*3 7.8 C 1.6 km/h
1273 14-12-2021 10:00:00 7.8 C 7.67 g/m*3 7.8 C 3.2 km/h
1274 14-12-2021 10:05:00 7.8 C 7.67 g/m*3 7.8 C 1.6 km/h
1275 14-12-2021 10:10:00 7.8 C 7.67 g/m*3 7.8 C 1.6 km/h
Sensor: Nr:Datum:Temp:Abs-Feuchte:Windchill:Wind:
Aussen-T/F 1276 14-12-2021 10:15:00 7.8 C 7.67 g/m*3 7.8 C 4.8 km/h
1277 14-12-2021 10:20:00 7.8 C 7.67 g/m*3 7.8 C 3.2 km/h
1278 14-12-2021 10:25:00 7.8 C 7.67 g/m*3 7.8 C 0 km/h
1279 14-12-2021 10:30:00 7.8 C 7.67 g/m*3 7.8 C 3.2 km/h
1280 14-12-2021 10:35:00 7.8 C 7.67 g/m*3 7.8 C 4.8 km/h
1281 14-12-2021 10:40:00 7.8 C 7.67 g/m*3 7.8 C 1.6 km/h
1282 14-12-2021 10:45:00 7.8 C 7.67 g/m*3 7.8 C 4.8 km/h
1283 14-12-2021 10:50:00 7.8 C 7.59 g/m*3 7.8 C 4.8 km/h
1284 14-12-2021 10:55:00 7.8 C 7.59 g/m*3 7.8 C 4.8 km/h
1285 14-12-2021 11:00:00 7.8 C 7.59 g/m*3 7.8 C 4.8 km/h
1286 14-12-2021 11:05:00 7.8 C 7.59 g/m*3 7.8 C 4.8 km/h
1287 14-12-2021 11:10:00 7.9 C 7.64 g/m*3 6.94 C 6.4 km/h
1288 14-12-2021 11:15:00 7.9 C 7.64 g/m*3 7.9 C 3.2 km/h
1289 14-12-2021 11:20:00 7.9 C 7.64 g/m*3 7.9 C 3.2 km/h
1290 14-12-2021 11:25:00 7.9 C 7.64 g/m*3 7.9 C 4.8 km/h
1291 14-12-2021 11:30:00 7.9 C 7.56 g/m*3 7.9 C 0 km/h
1292 14-12-2021 11:35:00 7.9 C 7.56 g/m*3 6.18 C 9.7 km/h
1293 14-12-2021 11:40:00 7.9 C 7.56 g/m*3 6.52 C 8.1 km/h
1294 14-12-2021 11:45:00 7.9 C 7.56 g/m*3 7.9 C 1.6 km/h
1295 14-12-2021 11:50:00 8 C 7.61 g/m*3 7.06 C 6.4 km/h
1296 14-12-2021 11:55:00 8 C 7.61 g/m*3 8 C 3.2 km/h
1297 14-12-2021 12:00:00 8 C 7.61 g/m*3 8 C 1.6 km/h
1298 14-12-2021 12:05:00 8.1 C 7.66 g/m*3 8.1 C 3.2 km/h
1299 14-12-2021 12:10:00 8 C 7.61 g/m*3 8 C 1.6 km/h
1300 14-12-2021 12:15:00 8.1 C 7.66 g/m*3 8.1 C 1.6 km/h
Sensor: Nr:Datum:Temp:Abs-Feuchte:Windchill:Wind:
Aussen-T/F 1301 14-12-2021 12:20:00 8.1 C 7.66 g/m*3 8.1 C 1.6 km/h
1302 14-12-2021 12:25:00 8.1 C 7.57 g/m*3 8.1 C 0 km/h
1303 14-12-2021 12:30:00 8.1 C 7.57 g/m*3 8.1 C 3.2 km/h
1304 14-12-2021 12:35:00 8.2 C 7.62 g/m*3 8.2 C 3.2 km/h
1305 14-12-2021 12:40:00 8.2 C 7.62 g/m*3 8.2 C 0 km/h
1306 14-12-2021 12:45:00 8.3 C 7.67 g/m*3 8.3 C 0 km/h
1307 14-12-2021 12:50:00 8.3 C 7.67 g/m*3 8.3 C 0 km/h
1308 14-12-2021 12:55:00 8.3 C 7.59 g/m*3 8.3 C 3.2 km/h
1309 14-12-2021 13:00:00 8.4 C 7.63 g/m*3 8.4 C 4.8 km/h
1310 14-12-2021 13:05:00 8.4 C 7.63 g/m*3 8.4 C 3.2 km/h
1311 14-12-2021 13:10:00 8.4 C 7.55 g/m*3 8.4 C 3.2 km/h
1312 14-12-2021 13:15:00 8.4 C 7.55 g/m*3 8.4 C 3.2 km/h
1313 14-12-2021 13:20:00 8.5 C 7.51 g/m*3 8.5 C 3.2 km/h
1314 14-12-2021 13:25:00 8.5 C 7.51 g/m*3 8.5 C 1.6 km/h
1315 14-12-2021 13:30:00 8.5 C 7.51 g/m*3 8.5 C 3.2 km/h
1316 14-12-2021 13:35:00 8.6 C 7.56 g/m*3 8.6 C 3.2 km/h
1317 14-12-2021 13:40:00 8.6 C 7.56 g/m*3 8.6 C 3.2 km/h
1318 14-12-2021 13:45:00 8.6 C 7.48 g/m*3 8.6 C 1.6 km/h
1319 14-12-2021 13:50:00 8.7 C 7.61 g/m*3 8.7 C 1.6 km/h
1320 14-12-2021 13:55:00 8.7 C 7.61 g/m*3 8.7 C 0 km/h
1321 14-12-2021 14:00:00 8.7 C 7.52 g/m*3 8.7 C 0 km/h
1322 14-12-2021 14:05:00 8.7 C 7.52 g/m*3 8.7 C 1.6 km/h
1323 14-12-2021 14:10:00 8.7 C 7.61 g/m*3 8.7 C 0 km/h
1324 14-12-2021 14:15:00 8.7 C 7.61 g/m*3 8.7 C 0 km/h
1325 14-12-2021 14:20:00 8.7 C 7.52 g/m*3 8.7 C 0 km/h
Sensor: Nr:Datum:Temp:Abs-Feuchte:Windchill:Wind:
Aussen-T/F 1326 14-12-2021 14:25:00 8.7 C 7.61 g/m*3 8.7 C 0 km/h
1327 14-12-2021 14:30:00 8.7 C 7.61 g/m*3 8.7 C 0 km/h
1328 14-12-2021 14:35:00 8.7 C 7.61 g/m*3 8.7 C 0 km/h
1329 14-12-2021 14:40:00 8.7 C 7.61 g/m*3 8.7 C 0 km/h
1330 14-12-2021 14:45:00 8.7 C 7.61 g/m*3 8.7 C 0 km/h
1331 14-12-2021 14:50:00 8.7 C 7.61 g/m*3 8.7 C 0 km/h
1332 14-12-2021 14:55:00 8.7 C 7.61 g/m*3 8.7 C 0 km/h
1333 14-12-2021 15:00:00 8.7 C 7.61 g/m*3 8.7 C 0 km/h
1334 14-12-2021 15:05:00 8.7 C 7.7 g/m*3 8.7 C 0 km/h
1335 14-12-2021 15:10:00 8.7 C 7.7 g/m*3 8.7 C 0 km/h
1336 14-12-2021 15:15:00 8.6 C 7.65 g/m*3 8.6 C 0 km/h
1337 14-12-2021 15:20:00 8.6 C 7.65 g/m*3 8.6 C 0 km/h
1338 14-12-2021 15:25:00 8.6 C 7.65 g/m*3 8.6 C 0 km/h
1339 14-12-2021 15:30:00 8.6 C 7.65 g/m*3 8.6 C 0 km/h
1340 14-12-2021 15:35:00 8.6 C 7.73 g/m*3 8.6 C 0 km/h
1341 14-12-2021 15:40:00 8.5 C 7.6 g/m*3 8.5 C 0 km/h
1342 14-12-2021 15:45:00 8.5 C 7.68 g/m*3 8.5 C 0 km/h
1343 14-12-2021 15:50:00 8.5 C 7.68 g/m*3 8.5 C 0 km/h
1344 14-12-2021 15:55:00 8.4 C 7.63 g/m*3 8.4 C 0 km/h
1345 14-12-2021 16:00:00 8.4 C 7.63 g/m*3 8.4 C 0 km/h
1346 14-12-2021 16:05:00 8.3 C 7.59 g/m*3 8.3 C 0 km/h
1347 14-12-2021 16:10:00 8.3 C 7.59 g/m*3 8.3 C 0 km/h
1348 14-12-2021 16:15:00 8.3 C 7.67 g/m*3 8.3 C 0 km/h
1349 14-12-2021 16:20:00 8.2 C 7.62 g/m*3 8.2 C 0 km/h
1350 14-12-2021 16:25:00 8.2 C 7.62 g/m*3 8.2 C 0 km/h
Sensor: Nr:Datum:Temp:Abs-Feuchte:Windchill:Wind:
Aussen-T/F 1351 14-12-2021 16:30:00 8.1 C 7.57 g/m*3 8.1 C 0 km/h
1352 14-12-2021 16:35:00 8.1 C 7.57 g/m*3 8.1 C 0 km/h
1353 14-12-2021 16:40:00 8.1 C 7.57 g/m*3 8.1 C 0 km/h
1354 14-12-2021 16:45:00 8 C 7.61 g/m*3 8 C 0 km/h
1355 14-12-2021 16:50:00 8 C 7.61 g/m*3 8 C 0 km/h
1356 14-12-2021 16:55:00 7.9 C 7.56 g/m*3 7.9 C 0 km/h
1357 14-12-2021 17:00:00 7.9 C 7.56 g/m*3 7.9 C 0 km/h
1358 14-12-2021 17:05:00 7.8 C 7.51 g/m*3 7.8 C 0 km/h
1359 14-12-2021 17:10:00 7.8 C 7.51 g/m*3 7.8 C 0 km/h
1360 14-12-2021 17:15:00 7.8 C 7.51 g/m*3 7.8 C 0 km/h
1361 14-12-2021 17:20:00 7.8 C 7.51 g/m*3 7.8 C 0 km/h
1362 14-12-2021 17:25:00 7.7 C 7.46 g/m*3 7.7 C 0 km/h
1363 14-12-2021 17:30:00 7.7 C 7.46 g/m*3 7.7 C 0 km/h
1364 14-12-2021 17:35:00 7.7 C 7.46 g/m*3 7.7 C 0 km/h
1365 14-12-2021 17:40:00 7.7 C 7.46 g/m*3 7.7 C 0 km/h
1366 14-12-2021 17:45:00 7.7 C 7.46 g/m*3 7.7 C 0 km/h
1367 14-12-2021 17:50:00 7.6 C 7.41 g/m*3 7.6 C 3.2 km/h
1368 14-12-2021 17:55:00 7.6 C 7.41 g/m*3 7.6 C 0 km/h
1369 14-12-2021 18:00:00 7.6 C 7.41 g/m*3 7.6 C 0 km/h
1370 14-12-2021 18:05:00 7.6 C 7.49 g/m*3 7.6 C 0 km/h
1371 14-12-2021 18:10:00 7.6 C 7.49 g/m*3 7.6 C 0 km/h
1372 14-12-2021 18:15:00 7.6 C 7.49 g/m*3 7.6 C 0 km/h
1373 14-12-2021 18:20:00 7.6 C 7.49 g/m*3 7.6 C 0 km/h
1374 14-12-2021 18:25:00 7.6 C 7.49 g/m*3 7.6 C 0 km/h
1375 14-12-2021 18:30:00 7.6 C 7.49 g/m*3 7.6 C 0 km/h
Sensor: Nr:Datum:Temp:Abs-Feuchte:Windchill:Wind:
Aussen-T/F 1376 14-12-2021 18:35:00 7.6 C 7.49 g/m*3 7.6 C 0 km/h
1377 14-12-2021 18:40:00 7.5 C 7.44 g/m*3 7.5 C 0 km/h
1378 14-12-2021 18:45:00 7.5 C 7.44 g/m*3 7.5 C 0 km/h
1379 14-12-2021 18:50:00 7.5 C 7.44 g/m*3 7.5 C 0 km/h
1380 14-12-2021 18:55:00 7.5 C 7.44 g/m*3 7.5 C 0 km/h
1381 14-12-2021 19:00:00 7.5 C 7.44 g/m*3 7.5 C 0 km/h
1382 14-12-2021 19:05:00 7.5 C 7.44 g/m*3 7.5 C 0 km/h
1383 14-12-2021 19:10:00 7.5 C 7.44 g/m*3 7.5 C 0 km/h
1384 14-12-2021 19:15:00 7.5 C 7.44 g/m*3 7.5 C 0 km/h
1385 14-12-2021 19:20:00 7.4 C 7.4 g/m*3 7.4 C 0 km/h
1386 14-12-2021 19:25:00 7.5 C 7.44 g/m*3 7.5 C 0 km/h
1387 14-12-2021 19:30:00 7.4 C 7.4 g/m*3 7.4 C 0 km/h
1388 14-12-2021 19:35:00 7.4 C 7.4 g/m*3 7.4 C 0 km/h
1389 14-12-2021 19:40:00 7.4 C 7.4 g/m*3 7.4 C 0 km/h
1390 14-12-2021 19:45:00 7.4 C 7.4 g/m*3 7.4 C 0 km/h
1391 14-12-2021 19:50:00 7.4 C 7.4 g/m*3 7.4 C 0 km/h
1392 14-12-2021 19:55:00 7.4 C 7.4 g/m*3 7.4 C 0 km/h
1393 14-12-2021 20:00:00 7.4 C 7.4 g/m*3 7.4 C 0 km/h
1394 14-12-2021 20:05:00 7.3 C 7.35 g/m*3 7.3 C 0 km/h
1395 14-12-2021 20:10:00 7.3 C 7.43 g/m*3 7.3 C 1.6 km/h
1396 14-12-2021 20:15:00 7.3 C 7.43 g/m*3 7.3 C 1.6 km/h
1397 14-12-2021 20:20:00 7.3 C 7.43 g/m*3 7.3 C 4.8 km/h
1398 14-12-2021 20:25:00 7.3 C 7.43 g/m*3 7.3 C 3.2 km/h
1399 14-12-2021 20:30:00 7.4 C 7.4 g/m*3 5.93 C 8.1 km/h
1400 14-12-2021 20:35:00 7.5 C 7.44 g/m*3 6.48 C 6.4 km/h
Sensor: Nr:Datum:Temp:Abs-Feuchte:Windchill:Wind:
Aussen-T/F 1401 14-12-2021 20:40:00 7.5 C 7.44 g/m*3 7.5 C 0 km/h
1402 14-12-2021 20:45:00 7.6 C 7.49 g/m*3 7.6 C 0 km/h
1403 14-12-2021 20:50:00 7.6 C 7.49 g/m*3 7.6 C 3.2 km/h
1404 14-12-2021 20:55:00 7.6 C 7.49 g/m*3 7.6 C 4.8 km/h
1405 14-12-2021 21:00:00 7.6 C 7.49 g/m*3 7.6 C 4.8 km/h
1406 14-12-2021 21:05:00 7.6 C 7.49 g/m*3 6.6 C 6.4 km/h
1407 14-12-2021 21:10:00 7.7 C 7.46 g/m*3 7.7 C 4.8 km/h
1408 14-12-2021 21:15:00 7.7 C 7.46 g/m*3 7.7 C 3.2 km/h
1409 14-12-2021 21:20:00 7.7 C 7.46 g/m*3 7.7 C 0 km/h
1410 14-12-2021 21:25:00 7.7 C 7.46 g/m*3 7.7 C 3.2 km/h
1411 14-12-2021 21:30:00 7.7 C 7.46 g/m*3 6.28 C 8.1 km/h
1412 14-12-2021 21:35:00 7.7 C 7.46 g/m*3 6.71 C 6.4 km/h
1413 14-12-2021 21:40:00 7.7 C 7.46 g/m*3 7.7 C 1.6 km/h
1414 14-12-2021 21:45:00 7.7 C 7.46 g/m*3 7.7 C 0 km/h
1415 14-12-2021 21:50:00 7.6 C 7.41 g/m*3 7.6 C 3.2 km/h
1416 14-12-2021 21:55:00 7.6 C 7.41 g/m*3 7.6 C 0 km/h
1417 14-12-2021 22:00:00 7.6 C 7.41 g/m*3 7.6 C 1.6 km/h
1418 14-12-2021 22:05:00 7.6 C 7.41 g/m*3 7.6 C 0 km/h
1419 14-12-2021 22:10:00 7.6 C 7.41 g/m*3 7.6 C 1.6 km/h
1420 14-12-2021 22:15:00 7.6 C 7.41 g/m*3 7.6 C 0 km/h
1421 14-12-2021 22:20:00 7.6 C 7.49 g/m*3 7.6 C 3.2 km/h
1422 14-12-2021 22:25:00 7.6 C 7.49 g/m*3 7.6 C 3.2 km/h
1423 14-12-2021 22:30:00 7.6 C 7.49 g/m*3 7.6 C 1.6 km/h
1424 14-12-2021 22:35:00 7.6 C 7.49 g/m*3 7.6 C 3.2 km/h
1425 14-12-2021 22:40:00 7.6 C 7.49 g/m*3 7.6 C 4.8 km/h
Sensor: Nr:Datum:Temp:Abs-Feuchte:Windchill:Wind:
Aussen-T/F 1426 14-12-2021 22:45:00 7.6 C 7.49 g/m*3 7.6 C 4.8 km/h
1427 14-12-2021 22:50:00 7.6 C 7.49 g/m*3 6.6 C 6.4 km/h
1428 14-12-2021 22:55:00 7.6 C 7.41 g/m*3 7.6 C 3.2 km/h
1429 14-12-2021 23:00:00 7.6 C 7.41 g/m*3 7.6 C 0 km/h
1430 14-12-2021 23:05:00 7.6 C 7.49 g/m*3 7.6 C 0 km/h
1431 14-12-2021 23:10:00 7.6 C 7.49 g/m*3 7.6 C 1.6 km/h
1432 14-12-2021 23:15:00 7.6 C 7.49 g/m*3 7.6 C 0 km/h
1433 14-12-2021 23:20:00 7.6 C 7.49 g/m*3 7.6 C 1.6 km/h
1434 14-12-2021 23:25:00 7.6 C 7.49 g/m*3 7.6 C 4.8 km/h
1435 14-12-2021 23:30:00 7.6 C 7.49 g/m*3 7.6 C 4.8 km/h
1436 14-12-2021 23:35:00 7.7 C 7.54 g/m*3 7.7 C 4.8 km/h
1437 14-12-2021 23:40:00 7.7 C 7.46 g/m*3 5.65 C 11.3 km/h
1438 14-12-2021 23:45:00 7.7 C 7.46 g/m*3 5.65 C 11.3 km/h
1439 14-12-2021 23:50:00 7.7 C 7.46 g/m*3 6.28 C 8.1 km/h
1440 14-12-2021 23:55:00 7.8 C 7.51 g/m*3 6.06 C 9.7 km/h

Legende:
   Min
   Max


Maximal/Minimal-Werte vom 10.12.2021 - 14.12.2021

Sensor Min Max Avg
Temp
(Aussen-T/F)
0.4 °C
10-12-2021  07:10:00
9.6 °C
13-12-2021  14:00:00
5.34 °C
Abs-Feuchte
(Aussen-T/F)
4.68 g/m*3
10-12-2021  07:10:00
8.34 g/m*3
13-12-2021  14:00:00
6.52 g/m*3
Windchill
(Aussen-T/F)
-1.71 C
10-12-2021  08:25:00
9.6 C
13-12-2021  14:05:00
4.6 C

Die Daten stammen von einer Davis Vantage Pro 2 Wetter-Station und werden unter Linux mit der Software wview2wettercgi und aufbereitet. Alle Angaben erfolgen ohne Gewähr für ihre Vollständigkeit oder Richtigkeit.
Kontakt: Rainer Krienke krienke@uni-koblenz.de . Meine Webseiten an der Uni Koblenz oder privat.
Version: $Revision: 0.78 $